<?xml version="1.0" encoding="UTF-8" standalone="no" ?>
<gpx xmlns="http://www.topografix.com/GPX/1/1" xmlns:xsi="http://www.w3.org/2001/XMLSchema-instance" xsi:schemaLocation="http://www.topografix.com/GPX/1/1 http://www.topografix.com/GPX/1/1/gpx.xsd" version="1.1" creator="VisuGPX - https://www.visugpx.com">
  <metadata>
    <name>Herbignies 2</name>
    <desc><![CDATA[Départ salle des Fêtes d'Herbignies, rue Berlandois.
Parcours campagnard passant par Villereau et le château de Potelle, idéal pour groupe de randonneurs.

]]></desc>
  </metadata>
  <trk>
    <name><![CDATA[HERBIGNIES 2]]></name>
    <trkseg>
      <trkpt lat="50.24613" lon="3.69812">
        <ele>133.28</ele>
        <time>2016-08-31T07:26:56Z</time>
      </trkpt>
      <trkpt lat="50.24609" lon="3.69806">
        <ele>134.24</ele>
        <time>2016-08-31T07:27:22Z</time>
      </trkpt>
      <trkpt lat="50.24609" lon="3.69803">
        <ele>133.76</ele>
        <time>2016-08-31T07:27:43Z</time>
      </trkpt>
      <trkpt lat="50.24609" lon="3.69804">
        <ele>133.76</ele>
        <time>2016-08-31T07:28:04Z</time>
      </trkpt>
      <trkpt lat="50.24612" lon="3.69808">
        <ele>134.24</ele>
        <time>2016-08-31T07:28:29Z</time>
      </trkpt>
      <trkpt lat="50.24611" lon="3.69807">
        <ele>134.24</ele>
        <time>2016-08-31T07:28:54Z</time>
      </trkpt>
      <trkpt lat="50.24609" lon="3.69805">
        <ele>134.24</ele>
        <time>2016-08-31T07:29:16Z</time>
      </trkpt>
      <trkpt lat="50.2461" lon="3.69805">
        <ele>134.24</ele>
        <time>2016-08-31T07:29:42Z</time>
      </trkpt>
      <trkpt lat="50.24615" lon="3.69805">
        <ele>134.24</ele>
        <time>2016-08-31T07:30:06Z</time>
      </trkpt>
      <trkpt lat="50.24616" lon="3.69807">
        <ele>134.72</ele>
        <time>2016-08-31T07:30:28Z</time>
      </trkpt>
      <trkpt lat="50.24613" lon="3.69806">
        <ele>134.72</ele>
        <time>2016-08-31T07:30:53Z</time>
      </trkpt>
      <trkpt lat="50.24608" lon="3.69802">
        <ele>135.2</ele>
        <time>2016-08-31T07:31:17Z</time>
      </trkpt>
      <trkpt lat="50.24607" lon="3.69802">
        <ele>147.22</ele>
        <time>2016-08-31T07:31:23Z</time>
      </trkpt>
      <trkpt lat="50.24606" lon="3.69802">
        <ele>147.22</ele>
        <time>2016-08-31T07:31:24Z</time>
      </trkpt>
      <trkpt lat="50.24606" lon="3.69801">
        <ele>143.85</ele>
        <time>2016-08-31T07:31:27Z</time>
      </trkpt>
      <trkpt lat="50.24607" lon="3.69801">
        <ele>144.34</ele>
        <time>2016-08-31T07:31:28Z</time>
      </trkpt>
      <trkpt lat="50.24609" lon="3.69802">
        <ele>141.45</ele>
        <time>2016-08-31T07:31:35Z</time>
      </trkpt>
      <trkpt lat="50.24609" lon="3.69802">
        <ele>141.45</ele>
        <time>2016-08-31T07:31:36Z</time>
      </trkpt>
      <trkpt lat="50.24608" lon="3.69803">
        <ele>141.45</ele>
        <time>2016-08-31T07:31:54Z</time>
      </trkpt>
      <trkpt lat="50.24607" lon="3.69799">
        <ele>140.97</ele>
        <time>2016-08-31T07:32:12Z</time>
      </trkpt>
      <trkpt lat="50.24607" lon="3.69799">
        <ele>140.97</ele>
        <time>2016-08-31T07:32:36Z</time>
      </trkpt>
      <trkpt lat="50.24608" lon="3.69801">
        <ele>140.97</ele>
        <time>2016-08-31T07:32:56Z</time>
      </trkpt>
      <trkpt lat="50.24608" lon="3.698">
        <ele>140.97</ele>
        <time>2016-08-31T07:33:21Z</time>
      </trkpt>
      <trkpt lat="50.24609" lon="3.698">
        <ele>140.97</ele>
        <time>2016-08-31T07:33:49Z</time>
      </trkpt>
      <trkpt lat="50.24608" lon="3.69802">
        <ele>140.97</ele>
        <time>2016-08-31T07:34:13Z</time>
      </trkpt>
      <trkpt lat="50.24608" lon="3.698">
        <ele>141.45</ele>
        <time>2016-08-31T07:34:31Z</time>
      </trkpt>
      <trkpt lat="50.246" lon="3.69788">
        <ele>135.68</ele>
        <time>2016-08-31T07:34:45Z</time>
      </trkpt>
      <trkpt lat="50.246" lon="3.69787">
        <ele>135.68</ele>
        <time>2016-08-31T07:34:46Z</time>
      </trkpt>
      <trkpt lat="50.24601" lon="3.69784">
        <ele>136.16</ele>
        <time>2016-08-31T07:34:49Z</time>
      </trkpt>
      <trkpt lat="50.24608" lon="3.69762">
        <ele>135.2</ele>
        <time>2016-08-31T07:35:05Z</time>
      </trkpt>
      <trkpt lat="50.24612" lon="3.69743">
        <ele>135.2</ele>
        <time>2016-08-31T07:35:20Z</time>
      </trkpt>
      <trkpt lat="50.24614" lon="3.69737">
        <ele>134.72</ele>
        <time>2016-08-31T07:35:40Z</time>
      </trkpt>
      <trkpt lat="50.24615" lon="3.69735">
        <ele>135.68</ele>
        <time>2016-08-31T07:35:42Z</time>
      </trkpt>
      <trkpt lat="50.2462" lon="3.69708">
        <ele>134.72</ele>
        <time>2016-08-31T07:35:58Z</time>
      </trkpt>
      <trkpt lat="50.24619" lon="3.697">
        <ele>135.68</ele>
        <time>2016-08-31T07:36:02Z</time>
      </trkpt>
      <trkpt lat="50.24598" lon="3.69686">
        <ele>133.28</ele>
        <time>2016-08-31T07:36:21Z</time>
      </trkpt>
      <trkpt lat="50.24579" lon="3.69679">
        <ele>132.32</ele>
        <time>2016-08-31T07:36:36Z</time>
      </trkpt>
      <trkpt lat="50.24557" lon="3.69666">
        <ele>130.88</ele>
        <time>2016-08-31T07:36:55Z</time>
      </trkpt>
      <trkpt lat="50.24535" lon="3.69655">
        <ele>130.88</ele>
        <time>2016-08-31T07:37:13Z</time>
      </trkpt>
      <trkpt lat="50.2453" lon="3.69653">
        <ele>129.43</ele>
        <time>2016-08-31T07:37:16Z</time>
      </trkpt>
      <trkpt lat="50.24507" lon="3.69645">
        <ele>128.95</ele>
        <time>2016-08-31T07:37:35Z</time>
      </trkpt>
      <trkpt lat="50.24488" lon="3.69639">
        <ele>128.95</ele>
        <time>2016-08-31T07:37:50Z</time>
      </trkpt>
      <trkpt lat="50.24469" lon="3.6963">
        <ele>128.95</ele>
        <time>2016-08-31T07:38:07Z</time>
      </trkpt>
      <trkpt lat="50.24446" lon="3.69617">
        <ele>128.47</ele>
        <time>2016-08-31T07:38:26Z</time>
      </trkpt>
      <trkpt lat="50.24424" lon="3.696">
        <ele>127.99</ele>
        <time>2016-08-31T07:38:46Z</time>
      </trkpt>
      <trkpt lat="50.24404" lon="3.69585">
        <ele>128.47</ele>
        <time>2016-08-31T07:39:05Z</time>
      </trkpt>
      <trkpt lat="50.24374" lon="3.69585">
        <ele>128.47</ele>
        <time>2016-08-31T07:39:24Z</time>
      </trkpt>
      <trkpt lat="50.24357" lon="3.69609">
        <ele>127.99</ele>
        <time>2016-08-31T07:39:41Z</time>
      </trkpt>
      <trkpt lat="50.24344" lon="3.69617">
        <ele>129.92</ele>
        <time>2016-08-31T07:39:57Z</time>
      </trkpt>
      <trkpt lat="50.24327" lon="3.69608">
        <ele>130.88</ele>
        <time>2016-08-31T07:40:17Z</time>
      </trkpt>
      <trkpt lat="50.24317" lon="3.69598">
        <ele>130.88</ele>
        <time>2016-08-31T07:40:26Z</time>
      </trkpt>
      <trkpt lat="50.24314" lon="3.69589">
        <ele>131.36</ele>
        <time>2016-08-31T07:40:31Z</time>
      </trkpt>
      <trkpt lat="50.24314" lon="3.69549">
        <ele>131.36</ele>
        <time>2016-08-31T07:40:51Z</time>
      </trkpt>
      <trkpt lat="50.24313" lon="3.69525">
        <ele>131.84</ele>
        <time>2016-08-31T07:41:04Z</time>
      </trkpt>
      <trkpt lat="50.24306" lon="3.69499">
        <ele>131.84</ele>
        <time>2016-08-31T07:41:18Z</time>
      </trkpt>
      <trkpt lat="50.243" lon="3.69475">
        <ele>131.84</ele>
        <time>2016-08-31T07:41:31Z</time>
      </trkpt>
      <trkpt lat="50.2429" lon="3.69453">
        <ele>131.84</ele>
        <time>2016-08-31T07:41:45Z</time>
      </trkpt>
      <trkpt lat="50.24289" lon="3.69449">
        <ele>132.8</ele>
        <time>2016-08-31T07:41:47Z</time>
      </trkpt>
      <trkpt lat="50.2428" lon="3.69423">
        <ele>132.32</ele>
        <time>2016-08-31T07:42:02Z</time>
      </trkpt>
      <trkpt lat="50.24268" lon="3.694">
        <ele>132.32</ele>
        <time>2016-08-31T07:42:17Z</time>
      </trkpt>
      <trkpt lat="50.24248" lon="3.69374">
        <ele>131.36</ele>
        <time>2016-08-31T07:42:37Z</time>
      </trkpt>
      <trkpt lat="50.24235" lon="3.69349">
        <ele>130.88</ele>
        <time>2016-08-31T07:42:53Z</time>
      </trkpt>
      <trkpt lat="50.24223" lon="3.6932">
        <ele>130.4</ele>
        <time>2016-08-31T07:43:11Z</time>
      </trkpt>
      <trkpt lat="50.24211" lon="3.69291">
        <ele>129.92</ele>
        <time>2016-08-31T07:43:28Z</time>
      </trkpt>
      <trkpt lat="50.24195" lon="3.69265">
        <ele>129.43</ele>
        <time>2016-08-31T07:43:45Z</time>
      </trkpt>
      <trkpt lat="50.24189" lon="3.69238">
        <ele>129.43</ele>
        <time>2016-08-31T07:44:02Z</time>
      </trkpt>
      <trkpt lat="50.24183" lon="3.69228">
        <ele>128.95</ele>
        <time>2016-08-31T07:44:10Z</time>
      </trkpt>
      <trkpt lat="50.24173" lon="3.6921">
        <ele>128.95</ele>
        <time>2016-08-31T07:44:22Z</time>
      </trkpt>
      <trkpt lat="50.24159" lon="3.69188">
        <ele>128.47</ele>
        <time>2016-08-31T07:44:38Z</time>
      </trkpt>
      <trkpt lat="50.24144" lon="3.69158">
        <ele>128.47</ele>
        <time>2016-08-31T07:44:55Z</time>
      </trkpt>
      <trkpt lat="50.2413" lon="3.69136">
        <ele>128.47</ele>
        <time>2016-08-31T07:45:12Z</time>
      </trkpt>
      <trkpt lat="50.24116" lon="3.69111">
        <ele>128.95</ele>
        <time>2016-08-31T07:45:30Z</time>
      </trkpt>
      <trkpt lat="50.24098" lon="3.69079">
        <ele>129.92</ele>
        <time>2016-08-31T07:45:52Z</time>
      </trkpt>
      <trkpt lat="50.24082" lon="3.6905">
        <ele>129.92</ele>
        <time>2016-08-31T07:46:12Z</time>
      </trkpt>
      <trkpt lat="50.24066" lon="3.69022">
        <ele>130.4</ele>
        <time>2016-08-31T07:46:32Z</time>
      </trkpt>
      <trkpt lat="50.24047" lon="3.6899">
        <ele>131.84</ele>
        <time>2016-08-31T07:46:54Z</time>
      </trkpt>
      <trkpt lat="50.2403" lon="3.6896">
        <ele>132.32</ele>
        <time>2016-08-31T07:47:14Z</time>
      </trkpt>
      <trkpt lat="50.24014" lon="3.68937">
        <ele>133.28</ele>
        <time>2016-08-31T07:47:33Z</time>
      </trkpt>
      <trkpt lat="50.23996" lon="3.68912">
        <ele>133.76</ele>
        <time>2016-08-31T07:47:53Z</time>
      </trkpt>
      <trkpt lat="50.23981" lon="3.68889">
        <ele>134.72</ele>
        <time>2016-08-31T07:48:10Z</time>
      </trkpt>
      <trkpt lat="50.23959" lon="3.6886">
        <ele>134.72</ele>
        <time>2016-08-31T07:48:32Z</time>
      </trkpt>
      <trkpt lat="50.2394" lon="3.68833">
        <ele>135.2</ele>
        <time>2016-08-31T07:48:53Z</time>
      </trkpt>
      <trkpt lat="50.23928" lon="3.68808">
        <ele>135.2</ele>
        <time>2016-08-31T07:49:09Z</time>
      </trkpt>
      <trkpt lat="50.23919" lon="3.68775">
        <ele>136.16</ele>
        <time>2016-08-31T07:49:27Z</time>
      </trkpt>
      <trkpt lat="50.23916" lon="3.68766">
        <ele>136.16</ele>
        <time>2016-08-31T07:49:33Z</time>
      </trkpt>
      <trkpt lat="50.23909" lon="3.68737">
        <ele>136.64</ele>
        <time>2016-08-31T07:49:49Z</time>
      </trkpt>
      <trkpt lat="50.23898" lon="3.68704">
        <ele>137.61</ele>
        <time>2016-08-31T07:50:08Z</time>
      </trkpt>
      <trkpt lat="50.2389" lon="3.68672">
        <ele>137.13</ele>
        <time>2016-08-31T07:50:26Z</time>
      </trkpt>
      <trkpt lat="50.23881" lon="3.68642">
        <ele>138.09</ele>
        <time>2016-08-31T07:50:43Z</time>
      </trkpt>
      <trkpt lat="50.23875" lon="3.6861">
        <ele>138.57</ele>
        <time>2016-08-31T07:50:59Z</time>
      </trkpt>
      <trkpt lat="50.2387" lon="3.68582">
        <ele>138.57</ele>
        <time>2016-08-31T07:51:15Z</time>
      </trkpt>
      <trkpt lat="50.23864" lon="3.68547">
        <ele>138.57</ele>
        <time>2016-08-31T07:51:34Z</time>
      </trkpt>
      <trkpt lat="50.23855" lon="3.68509">
        <ele>139.05</ele>
        <time>2016-08-31T07:51:54Z</time>
      </trkpt>
      <trkpt lat="50.2385" lon="3.68478">
        <ele>139.53</ele>
        <time>2016-08-31T07:52:11Z</time>
      </trkpt>
      <trkpt lat="50.23844" lon="3.68452">
        <ele>140.49</ele>
        <time>2016-08-31T07:52:26Z</time>
      </trkpt>
      <trkpt lat="50.23837" lon="3.68424">
        <ele>140.49</ele>
        <time>2016-08-31T07:52:42Z</time>
      </trkpt>
      <trkpt lat="50.23836" lon="3.68422">
        <ele>140.01</ele>
        <time>2016-08-31T07:52:43Z</time>
      </trkpt>
      <trkpt lat="50.23825" lon="3.68394">
        <ele>141.93</ele>
        <time>2016-08-31T07:53:01Z</time>
      </trkpt>
      <trkpt lat="50.23815" lon="3.68363">
        <ele>141.93</ele>
        <time>2016-08-31T07:53:18Z</time>
      </trkpt>
      <trkpt lat="50.2381" lon="3.6834">
        <ele>142.41</ele>
        <time>2016-08-31T07:53:32Z</time>
      </trkpt>
      <trkpt lat="50.23808" lon="3.68334">
        <ele>141.45</ele>
        <time>2016-08-31T07:53:36Z</time>
      </trkpt>
      <trkpt lat="50.23808" lon="3.68331">
        <ele>141.93</ele>
        <time>2016-08-31T07:53:38Z</time>
      </trkpt>
      <trkpt lat="50.23805" lon="3.68319">
        <ele>142.41</ele>
        <time>2016-08-31T07:53:44Z</time>
      </trkpt>
      <trkpt lat="50.23805" lon="3.68313">
        <ele>142.89</ele>
        <time>2016-08-31T07:53:48Z</time>
      </trkpt>
      <trkpt lat="50.23803" lon="3.68281">
        <ele>142.41</ele>
        <time>2016-08-31T07:54:03Z</time>
      </trkpt>
      <trkpt lat="50.23803" lon="3.68265">
        <ele>142.41</ele>
        <time>2016-08-31T07:54:22Z</time>
      </trkpt>
      <trkpt lat="50.23799" lon="3.68258">
        <ele>141.93</ele>
        <time>2016-08-31T07:54:48Z</time>
      </trkpt>
      <trkpt lat="50.23798" lon="3.68254">
        <ele>142.41</ele>
        <time>2016-08-31T07:55:06Z</time>
      </trkpt>
      <trkpt lat="50.23804" lon="3.68242">
        <ele>142.89</ele>
        <time>2016-08-31T07:55:22Z</time>
      </trkpt>
      <trkpt lat="50.23816" lon="3.68216">
        <ele>141.93</ele>
        <time>2016-08-31T07:55:41Z</time>
      </trkpt>
      <trkpt lat="50.23825" lon="3.68195">
        <ele>141.93</ele>
        <time>2016-08-31T07:55:56Z</time>
      </trkpt>
      <trkpt lat="50.23836" lon="3.68166">
        <ele>141.93</ele>
        <time>2016-08-31T07:56:14Z</time>
      </trkpt>
      <trkpt lat="50.23844" lon="3.68143">
        <ele>142.89</ele>
        <time>2016-08-31T07:56:28Z</time>
      </trkpt>
      <trkpt lat="50.23849" lon="3.68115">
        <ele>141.93</ele>
        <time>2016-08-31T07:56:43Z</time>
      </trkpt>
      <trkpt lat="50.2385" lon="3.68086">
        <ele>142.41</ele>
        <time>2016-08-31T07:56:58Z</time>
      </trkpt>
      <trkpt lat="50.23853" lon="3.68056">
        <ele>141.93</ele>
        <time>2016-08-31T07:57:14Z</time>
      </trkpt>
      <trkpt lat="50.2386" lon="3.68026">
        <ele>141.93</ele>
        <time>2016-08-31T07:57:30Z</time>
      </trkpt>
      <trkpt lat="50.23871" lon="3.67995">
        <ele>140.97</ele>
        <time>2016-08-31T07:57:47Z</time>
      </trkpt>
      <trkpt lat="50.23882" lon="3.6797">
        <ele>139.05</ele>
        <time>2016-08-31T07:58:02Z</time>
      </trkpt>
      <trkpt lat="50.23891" lon="3.67947">
        <ele>139.05</ele>
        <time>2016-08-31T07:58:17Z</time>
      </trkpt>
      <trkpt lat="50.23901" lon="3.67922">
        <ele>139.53</ele>
        <time>2016-08-31T07:58:31Z</time>
      </trkpt>
      <trkpt lat="50.2391" lon="3.67895">
        <ele>139.53</ele>
        <time>2016-08-31T07:58:46Z</time>
      </trkpt>
      <trkpt lat="50.2392" lon="3.67869">
        <ele>140.01</ele>
        <time>2016-08-31T07:59:01Z</time>
      </trkpt>
      <trkpt lat="50.23927" lon="3.67844">
        <ele>139.53</ele>
        <time>2016-08-31T07:59:16Z</time>
      </trkpt>
      <trkpt lat="50.23938" lon="3.67814">
        <ele>140.01</ele>
        <time>2016-08-31T07:59:33Z</time>
      </trkpt>
      <trkpt lat="50.23945" lon="3.67791">
        <ele>140.49</ele>
        <time>2016-08-31T07:59:47Z</time>
      </trkpt>
      <trkpt lat="50.23954" lon="3.67761">
        <ele>140.49</ele>
        <time>2016-08-31T08:00:03Z</time>
      </trkpt>
      <trkpt lat="50.23961" lon="3.67736">
        <ele>140.49</ele>
        <time>2016-08-31T08:00:18Z</time>
      </trkpt>
      <trkpt lat="50.2397" lon="3.67716">
        <ele>140.01</ele>
        <time>2016-08-31T08:00:33Z</time>
      </trkpt>
      <trkpt lat="50.23972" lon="3.67713">
        <ele>140.01</ele>
        <time>2016-08-31T08:00:49Z</time>
      </trkpt>
      <trkpt lat="50.23973" lon="3.67714">
        <ele>140.01</ele>
        <time>2016-08-31T08:01:08Z</time>
      </trkpt>
      <trkpt lat="50.23978" lon="3.67713">
        <ele>139.53</ele>
        <time>2016-08-31T08:01:18Z</time>
      </trkpt>
      <trkpt lat="50.23982" lon="3.67715">
        <ele>139.53</ele>
        <time>2016-08-31T08:01:22Z</time>
      </trkpt>
      <trkpt lat="50.24001" lon="3.67719">
        <ele>139.53</ele>
        <time>2016-08-31T08:01:37Z</time>
      </trkpt>
      <trkpt lat="50.2402" lon="3.67724">
        <ele>139.53</ele>
        <time>2016-08-31T08:01:53Z</time>
      </trkpt>
      <trkpt lat="50.2404" lon="3.67726">
        <ele>139.53</ele>
        <time>2016-08-31T08:02:09Z</time>
      </trkpt>
      <trkpt lat="50.24064" lon="3.67725">
        <ele>138.09</ele>
        <time>2016-08-31T08:02:27Z</time>
      </trkpt>
      <trkpt lat="50.24083" lon="3.67725">
        <ele>138.57</ele>
        <time>2016-08-31T08:02:42Z</time>
      </trkpt>
      <trkpt lat="50.24104" lon="3.67728">
        <ele>138.09</ele>
        <time>2016-08-31T08:02:59Z</time>
      </trkpt>
      <trkpt lat="50.24125" lon="3.67728">
        <ele>137.61</ele>
        <time>2016-08-31T08:03:15Z</time>
      </trkpt>
      <trkpt lat="50.24147" lon="3.67731">
        <ele>137.13</ele>
        <time>2016-08-31T08:03:31Z</time>
      </trkpt>
      <trkpt lat="50.24171" lon="3.67734">
        <ele>137.13</ele>
        <time>2016-08-31T08:03:49Z</time>
      </trkpt>
      <trkpt lat="50.24191" lon="3.67736">
        <ele>135.68</ele>
        <time>2016-08-31T08:04:06Z</time>
      </trkpt>
      <trkpt lat="50.24213" lon="3.67738">
        <ele>135.68</ele>
        <time>2016-08-31T08:04:24Z</time>
      </trkpt>
      <trkpt lat="50.24233" lon="3.67739">
        <ele>135.2</ele>
        <time>2016-08-31T08:04:39Z</time>
      </trkpt>
      <trkpt lat="50.24253" lon="3.67739">
        <ele>135.68</ele>
        <time>2016-08-31T08:04:54Z</time>
      </trkpt>
      <trkpt lat="50.24274" lon="3.67737">
        <ele>134.72</ele>
        <time>2016-08-31T08:05:10Z</time>
      </trkpt>
      <trkpt lat="50.24289" lon="3.67738">
        <ele>134.24</ele>
        <time>2016-08-31T08:05:23Z</time>
      </trkpt>
      <trkpt lat="50.24308" lon="3.67737">
        <ele>133.28</ele>
        <time>2016-08-31T08:05:39Z</time>
      </trkpt>
      <trkpt lat="50.24329" lon="3.67733">
        <ele>131.84</ele>
        <time>2016-08-31T08:05:56Z</time>
      </trkpt>
      <trkpt lat="50.24348" lon="3.67731">
        <ele>131.84</ele>
        <time>2016-08-31T08:06:11Z</time>
      </trkpt>
      <trkpt lat="50.24364" lon="3.67731">
        <ele>130.4</ele>
        <time>2016-08-31T08:06:25Z</time>
      </trkpt>
      <trkpt lat="50.2438" lon="3.6773">
        <ele>130.4</ele>
        <time>2016-08-31T08:06:39Z</time>
      </trkpt>
      <trkpt lat="50.24402" lon="3.67731">
        <ele>129.92</ele>
        <time>2016-08-31T08:06:54Z</time>
      </trkpt>
      <trkpt lat="50.24414" lon="3.67726">
        <ele>129.43</ele>
        <time>2016-08-31T08:07:09Z</time>
      </trkpt>
      <trkpt lat="50.24418" lon="3.67719">
        <ele>129.43</ele>
        <time>2016-08-31T08:07:14Z</time>
      </trkpt>
      <trkpt lat="50.24429" lon="3.67697">
        <ele>128.95</ele>
        <time>2016-08-31T08:07:30Z</time>
      </trkpt>
      <trkpt lat="50.24435" lon="3.67683">
        <ele>128.47</ele>
        <time>2016-08-31T08:07:38Z</time>
      </trkpt>
      <trkpt lat="50.24446" lon="3.6766">
        <ele>128.47</ele>
        <time>2016-08-31T08:07:53Z</time>
      </trkpt>
      <trkpt lat="50.2446" lon="3.67632">
        <ele>128.47</ele>
        <time>2016-08-31T08:08:11Z</time>
      </trkpt>
      <trkpt lat="50.24473" lon="3.6761">
        <ele>127.51</ele>
        <time>2016-08-31T08:08:29Z</time>
      </trkpt>
      <trkpt lat="50.24475" lon="3.67609">
        <ele>127.51</ele>
        <time>2016-08-31T08:08:31Z</time>
      </trkpt>
      <trkpt lat="50.24491" lon="3.67619">
        <ele>126.55</ele>
        <time>2016-08-31T08:08:47Z</time>
      </trkpt>
      <trkpt lat="50.24503" lon="3.67633">
        <ele>125.59</ele>
        <time>2016-08-31T08:09:02Z</time>
      </trkpt>
      <trkpt lat="50.24516" lon="3.67647">
        <ele>124.15</ele>
        <time>2016-08-31T08:09:15Z</time>
      </trkpt>
      <trkpt lat="50.24528" lon="3.6766">
        <ele>123.19</ele>
        <time>2016-08-31T08:09:28Z</time>
      </trkpt>
      <trkpt lat="50.24539" lon="3.67655">
        <ele>123.67</ele>
        <time>2016-08-31T08:09:40Z</time>
      </trkpt>
      <trkpt lat="50.2454" lon="3.67652">
        <ele>123.67</ele>
        <time>2016-08-31T08:09:44Z</time>
      </trkpt>
      <trkpt lat="50.24548" lon="3.67631">
        <ele>123.19</ele>
        <time>2016-08-31T08:09:59Z</time>
      </trkpt>
      <trkpt lat="50.24561" lon="3.67604">
        <ele>122.22</ele>
        <time>2016-08-31T08:10:14Z</time>
      </trkpt>
      <trkpt lat="50.24567" lon="3.6758">
        <ele>122.22</ele>
        <time>2016-08-31T08:10:28Z</time>
      </trkpt>
      <trkpt lat="50.24568" lon="3.67554">
        <ele>121.74</ele>
        <time>2016-08-31T08:10:42Z</time>
      </trkpt>
      <trkpt lat="50.24562" lon="3.67529">
        <ele>121.26</ele>
        <time>2016-08-31T08:10:56Z</time>
      </trkpt>
      <trkpt lat="50.24554" lon="3.67502">
        <ele>121.26</ele>
        <time>2016-08-31T08:11:11Z</time>
      </trkpt>
      <trkpt lat="50.24545" lon="3.67477">
        <ele>121.74</ele>
        <time>2016-08-31T08:11:26Z</time>
      </trkpt>
      <trkpt lat="50.24537" lon="3.67453">
        <ele>122.22</ele>
        <time>2016-08-31T08:11:40Z</time>
      </trkpt>
      <trkpt lat="50.24533" lon="3.67439">
        <ele>122.71</ele>
        <time>2016-08-31T08:11:48Z</time>
      </trkpt>
      <trkpt lat="50.24531" lon="3.6741">
        <ele>123.67</ele>
        <time>2016-08-31T08:12:04Z</time>
      </trkpt>
      <trkpt lat="50.24531" lon="3.67399">
        <ele>124.15</ele>
        <time>2016-08-31T08:12:11Z</time>
      </trkpt>
      <trkpt lat="50.24534" lon="3.67361">
        <ele>123.67</ele>
        <time>2016-08-31T08:12:29Z</time>
      </trkpt>
      <trkpt lat="50.24537" lon="3.67332">
        <ele>123.19</ele>
        <time>2016-08-31T08:12:46Z</time>
      </trkpt>
      <trkpt lat="50.24539" lon="3.67296">
        <ele>123.19</ele>
        <time>2016-08-31T08:13:04Z</time>
      </trkpt>
      <trkpt lat="50.2454" lon="3.67261">
        <ele>122.22</ele>
        <time>2016-08-31T08:13:24Z</time>
      </trkpt>
      <trkpt lat="50.24542" lon="3.67225">
        <ele>122.22</ele>
        <time>2016-08-31T08:13:43Z</time>
      </trkpt>
      <trkpt lat="50.24542" lon="3.6721">
        <ele>122.22</ele>
        <time>2016-08-31T08:13:51Z</time>
      </trkpt>
      <trkpt lat="50.24543" lon="3.67178">
        <ele>120.78</ele>
        <time>2016-08-31T08:14:09Z</time>
      </trkpt>
      <trkpt lat="50.24546" lon="3.67137">
        <ele>121.74</ele>
        <time>2016-08-31T08:14:27Z</time>
      </trkpt>
      <trkpt lat="50.24555" lon="3.6711">
        <ele>121.26</ele>
        <time>2016-08-31T08:14:43Z</time>
      </trkpt>
      <trkpt lat="50.24571" lon="3.67091">
        <ele>120.78</ele>
        <time>2016-08-31T08:15:01Z</time>
      </trkpt>
      <trkpt lat="50.24585" lon="3.67066">
        <ele>119.82</ele>
        <time>2016-08-31T08:15:16Z</time>
      </trkpt>
      <trkpt lat="50.246" lon="3.67042">
        <ele>119.34</ele>
        <time>2016-08-31T08:15:35Z</time>
      </trkpt>
      <trkpt lat="50.24616" lon="3.67014">
        <ele>118.38</ele>
        <time>2016-08-31T08:15:54Z</time>
      </trkpt>
      <trkpt lat="50.2463" lon="3.66991">
        <ele>116.94</ele>
        <time>2016-08-31T08:16:10Z</time>
      </trkpt>
      <trkpt lat="50.24631" lon="3.6699">
        <ele>117.42</ele>
        <time>2016-08-31T08:16:11Z</time>
      </trkpt>
      <trkpt lat="50.24638" lon="3.66986">
        <ele>116.46</ele>
        <time>2016-08-31T08:16:18Z</time>
      </trkpt>
      <trkpt lat="50.24645" lon="3.66985">
        <ele>116.94</ele>
        <time>2016-08-31T08:16:36Z</time>
      </trkpt>
      <trkpt lat="50.2464" lon="3.66979">
        <ele>116.46</ele>
        <time>2016-08-31T08:16:46Z</time>
      </trkpt>
      <trkpt lat="50.24641" lon="3.66975">
        <ele>116.46</ele>
        <time>2016-08-31T08:16:50Z</time>
      </trkpt>
      <trkpt lat="50.24646" lon="3.66959">
        <ele>116.94</ele>
        <time>2016-08-31T08:17:01Z</time>
      </trkpt>
      <trkpt lat="50.24651" lon="3.66949">
        <ele>116.94</ele>
        <time>2016-08-31T08:17:08Z</time>
      </trkpt>
      <trkpt lat="50.24659" lon="3.66936">
        <ele>115.5</ele>
        <time>2016-08-31T08:17:19Z</time>
      </trkpt>
      <trkpt lat="50.24669" lon="3.66912">
        <ele>115.98</ele>
        <time>2016-08-31T08:17:34Z</time>
      </trkpt>
      <trkpt lat="50.2468" lon="3.66895">
        <ele>115.98</ele>
        <time>2016-08-31T08:17:49Z</time>
      </trkpt>
      <trkpt lat="50.24688" lon="3.66877">
        <ele>115.98</ele>
        <time>2016-08-31T08:18:02Z</time>
      </trkpt>
      <trkpt lat="50.24701" lon="3.66856">
        <ele>116.46</ele>
        <time>2016-08-31T08:18:17Z</time>
      </trkpt>
      <trkpt lat="50.24716" lon="3.66838">
        <ele>115.5</ele>
        <time>2016-08-31T08:18:33Z</time>
      </trkpt>
      <trkpt lat="50.24732" lon="3.66819">
        <ele>116.94</ele>
        <time>2016-08-31T08:18:50Z</time>
      </trkpt>
      <trkpt lat="50.24747" lon="3.66801">
        <ele>117.42</ele>
        <time>2016-08-31T08:19:05Z</time>
      </trkpt>
      <trkpt lat="50.24762" lon="3.66781">
        <ele>116.94</ele>
        <time>2016-08-31T08:19:22Z</time>
      </trkpt>
      <trkpt lat="50.24776" lon="3.66762">
        <ele>117.42</ele>
        <time>2016-08-31T08:19:39Z</time>
      </trkpt>
      <trkpt lat="50.24788" lon="3.66746">
        <ele>117.42</ele>
        <time>2016-08-31T08:19:52Z</time>
      </trkpt>
      <trkpt lat="50.24803" lon="3.66729">
        <ele>117.9</ele>
        <time>2016-08-31T08:20:09Z</time>
      </trkpt>
      <trkpt lat="50.24818" lon="3.66705">
        <ele>117.9</ele>
        <time>2016-08-31T08:20:25Z</time>
      </trkpt>
      <trkpt lat="50.24839" lon="3.66687">
        <ele>118.38</ele>
        <time>2016-08-31T08:20:44Z</time>
      </trkpt>
      <trkpt lat="50.24844" lon="3.66683">
        <ele>118.38</ele>
        <time>2016-08-31T08:20:50Z</time>
      </trkpt>
      <trkpt lat="50.24859" lon="3.66673">
        <ele>118.38</ele>
        <time>2016-08-31T08:21:04Z</time>
      </trkpt>
      <trkpt lat="50.24869" lon="3.66665">
        <ele>118.86</ele>
        <time>2016-08-31T08:21:13Z</time>
      </trkpt>
      <trkpt lat="50.24887" lon="3.66648">
        <ele>118.86</ele>
        <time>2016-08-31T08:21:29Z</time>
      </trkpt>
      <trkpt lat="50.24905" lon="3.66627">
        <ele>119.34</ele>
        <time>2016-08-31T08:21:46Z</time>
      </trkpt>
      <trkpt lat="50.24915" lon="3.66603">
        <ele>119.82</ele>
        <time>2016-08-31T08:22:02Z</time>
      </trkpt>
      <trkpt lat="50.2492" lon="3.66587">
        <ele>120.3</ele>
        <time>2016-08-31T08:22:12Z</time>
      </trkpt>
      <trkpt lat="50.24928" lon="3.66567">
        <ele>120.78</ele>
        <time>2016-08-31T08:22:27Z</time>
      </trkpt>
      <trkpt lat="50.24929" lon="3.66565">
        <ele>120.3</ele>
        <time>2016-08-31T08:22:34Z</time>
      </trkpt>
      <trkpt lat="50.24939" lon="3.66541">
        <ele>120.3</ele>
        <time>2016-08-31T08:22:49Z</time>
      </trkpt>
      <trkpt lat="50.24951" lon="3.66518">
        <ele>120.3</ele>
        <time>2016-08-31T08:23:05Z</time>
      </trkpt>
      <trkpt lat="50.2496" lon="3.66502">
        <ele>119.34</ele>
        <time>2016-08-31T08:23:19Z</time>
      </trkpt>
      <trkpt lat="50.24967" lon="3.66486">
        <ele>119.82</ele>
        <time>2016-08-31T08:23:34Z</time>
      </trkpt>
      <trkpt lat="50.24977" lon="3.66463">
        <ele>119.82</ele>
        <time>2016-08-31T08:23:50Z</time>
      </trkpt>
      <trkpt lat="50.2499" lon="3.66441">
        <ele>119.82</ele>
        <time>2016-08-31T08:24:05Z</time>
      </trkpt>
      <trkpt lat="50.25002" lon="3.66419">
        <ele>119.82</ele>
        <time>2016-08-31T08:24:21Z</time>
      </trkpt>
      <trkpt lat="50.25012" lon="3.66402">
        <ele>119.82</ele>
        <time>2016-08-31T08:24:34Z</time>
      </trkpt>
      <trkpt lat="50.25017" lon="3.66395">
        <ele>120.3</ele>
        <time>2016-08-31T08:24:47Z</time>
      </trkpt>
      <trkpt lat="50.25019" lon="3.66392">
        <ele>119.34</ele>
        <time>2016-08-31T08:25:04Z</time>
      </trkpt>
      <trkpt lat="50.25027" lon="3.66379">
        <ele>120.3</ele>
        <time>2016-08-31T08:25:17Z</time>
      </trkpt>
      <trkpt lat="50.25039" lon="3.66361">
        <ele>119.82</ele>
        <time>2016-08-31T08:25:32Z</time>
      </trkpt>
      <trkpt lat="50.25047" lon="3.66348">
        <ele>119.82</ele>
        <time>2016-08-31T08:25:44Z</time>
      </trkpt>
      <trkpt lat="50.25059" lon="3.66333">
        <ele>120.3</ele>
        <time>2016-08-31T08:25:59Z</time>
      </trkpt>
      <trkpt lat="50.25069" lon="3.66323">
        <ele>120.78</ele>
        <time>2016-08-31T08:26:11Z</time>
      </trkpt>
      <trkpt lat="50.25074" lon="3.66315">
        <ele>120.78</ele>
        <time>2016-08-31T08:26:23Z</time>
      </trkpt>
      <trkpt lat="50.25082" lon="3.66301">
        <ele>120.78</ele>
        <time>2016-08-31T08:26:37Z</time>
      </trkpt>
      <trkpt lat="50.25094" lon="3.66284">
        <ele>120.78</ele>
        <time>2016-08-31T08:26:50Z</time>
      </trkpt>
      <trkpt lat="50.25104" lon="3.66265">
        <ele>120.78</ele>
        <time>2016-08-31T08:27:04Z</time>
      </trkpt>
      <trkpt lat="50.25114" lon="3.66246">
        <ele>121.26</ele>
        <time>2016-08-31T08:27:18Z</time>
      </trkpt>
      <trkpt lat="50.25122" lon="3.66226">
        <ele>121.74</ele>
        <time>2016-08-31T08:27:31Z</time>
      </trkpt>
      <trkpt lat="50.25129" lon="3.66203">
        <ele>122.22</ele>
        <time>2016-08-31T08:27:45Z</time>
      </trkpt>
      <trkpt lat="50.25135" lon="3.6618">
        <ele>122.22</ele>
        <time>2016-08-31T08:27:59Z</time>
      </trkpt>
      <trkpt lat="50.2514" lon="3.66159">
        <ele>122.22</ele>
        <time>2016-08-31T08:28:11Z</time>
      </trkpt>
      <trkpt lat="50.25145" lon="3.66136">
        <ele>121.74</ele>
        <time>2016-08-31T08:28:25Z</time>
      </trkpt>
      <trkpt lat="50.25147" lon="3.66119">
        <ele>121.26</ele>
        <time>2016-08-31T08:28:35Z</time>
      </trkpt>
      <trkpt lat="50.25148" lon="3.66112">
        <ele>121.26</ele>
        <time>2016-08-31T08:28:39Z</time>
      </trkpt>
      <trkpt lat="50.2515" lon="3.66091">
        <ele>121.26</ele>
        <time>2016-08-31T08:28:52Z</time>
      </trkpt>
      <trkpt lat="50.25153" lon="3.66067">
        <ele>120.78</ele>
        <time>2016-08-31T08:29:06Z</time>
      </trkpt>
      <trkpt lat="50.25152" lon="3.66053">
        <ele>120.3</ele>
        <time>2016-08-31T08:29:22Z</time>
      </trkpt>
      <trkpt lat="50.25152" lon="3.66054">
        <ele>119.82</ele>
        <time>2016-08-31T08:29:38Z</time>
      </trkpt>
      <trkpt lat="50.25152" lon="3.66055">
        <ele>119.82</ele>
        <time>2016-08-31T08:30:03Z</time>
      </trkpt>
      <trkpt lat="50.25154" lon="3.66055">
        <ele>120.3</ele>
        <time>2016-08-31T08:30:37Z</time>
      </trkpt>
      <trkpt lat="50.25153" lon="3.66054">
        <ele>120.3</ele>
        <time>2016-08-31T08:31:12Z</time>
      </trkpt>
      <trkpt lat="50.25151" lon="3.66054">
        <ele>120.3</ele>
        <time>2016-08-31T08:31:49Z</time>
      </trkpt>
      <trkpt lat="50.2515" lon="3.66056">
        <ele>120.3</ele>
        <time>2016-08-31T08:32:11Z</time>
      </trkpt>
      <trkpt lat="50.25151" lon="3.66048">
        <ele>120.78</ele>
        <time>2016-08-31T08:32:37Z</time>
      </trkpt>
      <trkpt lat="50.25153" lon="3.66016">
        <ele>120.3</ele>
        <time>2016-08-31T08:32:55Z</time>
      </trkpt>
      <trkpt lat="50.25157" lon="3.65991">
        <ele>120.78</ele>
        <time>2016-08-31T08:33:11Z</time>
      </trkpt>
      <trkpt lat="50.25165" lon="3.65965">
        <ele>120.78</ele>
        <time>2016-08-31T08:33:27Z</time>
      </trkpt>
      <trkpt lat="50.25173" lon="3.65946">
        <ele>120.78</ele>
        <time>2016-08-31T08:33:41Z</time>
      </trkpt>
      <trkpt lat="50.25185" lon="3.65923">
        <ele>121.74</ele>
        <time>2016-08-31T08:33:58Z</time>
      </trkpt>
      <trkpt lat="50.25195" lon="3.65898">
        <ele>122.71</ele>
        <time>2016-08-31T08:34:14Z</time>
      </trkpt>
      <trkpt lat="50.25206" lon="3.65872">
        <ele>123.19</ele>
        <time>2016-08-31T08:34:30Z</time>
      </trkpt>
      <trkpt lat="50.25217" lon="3.65849">
        <ele>123.19</ele>
        <time>2016-08-31T08:34:46Z</time>
      </trkpt>
      <trkpt lat="50.25229" lon="3.65824">
        <ele>123.19</ele>
        <time>2016-08-31T08:35:04Z</time>
      </trkpt>
      <trkpt lat="50.25238" lon="3.65802">
        <ele>124.15</ele>
        <time>2016-08-31T08:35:18Z</time>
      </trkpt>
      <trkpt lat="50.25246" lon="3.65778">
        <ele>124.63</ele>
        <time>2016-08-31T08:35:33Z</time>
      </trkpt>
      <trkpt lat="50.25259" lon="3.65749">
        <ele>124.15</ele>
        <time>2016-08-31T08:35:51Z</time>
      </trkpt>
      <trkpt lat="50.25269" lon="3.65726">
        <ele>123.67</ele>
        <time>2016-08-31T08:36:09Z</time>
      </trkpt>
      <trkpt lat="50.25285" lon="3.65694">
        <ele>123.67</ele>
        <time>2016-08-31T08:36:30Z</time>
      </trkpt>
      <trkpt lat="50.25298" lon="3.65668">
        <ele>123.67</ele>
        <time>2016-08-31T08:36:48Z</time>
      </trkpt>
      <trkpt lat="50.25314" lon="3.65639">
        <ele>122.71</ele>
        <time>2016-08-31T08:37:07Z</time>
      </trkpt>
      <trkpt lat="50.25327" lon="3.65617">
        <ele>121.26</ele>
        <time>2016-08-31T08:37:23Z</time>
      </trkpt>
      <trkpt lat="50.25336" lon="3.65593">
        <ele>120.3</ele>
        <time>2016-08-31T08:37:39Z</time>
      </trkpt>
      <trkpt lat="50.25347" lon="3.65566">
        <ele>119.82</ele>
        <time>2016-08-31T08:37:55Z</time>
      </trkpt>
      <trkpt lat="50.25353" lon="3.65539">
        <ele>119.34</ele>
        <time>2016-08-31T08:38:09Z</time>
      </trkpt>
      <trkpt lat="50.25358" lon="3.6551">
        <ele>118.38</ele>
        <time>2016-08-31T08:38:25Z</time>
      </trkpt>
      <trkpt lat="50.25359" lon="3.65485">
        <ele>118.38</ele>
        <time>2016-08-31T08:38:37Z</time>
      </trkpt>
      <trkpt lat="50.2536" lon="3.65456">
        <ele>117.9</ele>
        <time>2016-08-31T08:38:53Z</time>
      </trkpt>
      <trkpt lat="50.2536" lon="3.65451">
        <ele>118.38</ele>
        <time>2016-08-31T08:38:56Z</time>
      </trkpt>
      <trkpt lat="50.2536" lon="3.65431">
        <ele>117.42</ele>
        <time>2016-08-31T08:39:08Z</time>
      </trkpt>
      <trkpt lat="50.25359" lon="3.65423">
        <ele>117.42</ele>
        <time>2016-08-31T08:39:22Z</time>
      </trkpt>
      <trkpt lat="50.25361" lon="3.65424">
        <ele>117.42</ele>
        <time>2016-08-31T08:39:41Z</time>
      </trkpt>
      <trkpt lat="50.25361" lon="3.65425">
        <ele>117.42</ele>
        <time>2016-08-31T08:39:51Z</time>
      </trkpt>
      <trkpt lat="50.25366" lon="3.65428">
        <ele>115.98</ele>
        <time>2016-08-31T08:39:58Z</time>
      </trkpt>
      <trkpt lat="50.25376" lon="3.65436">
        <ele>115.98</ele>
        <time>2016-08-31T08:40:10Z</time>
      </trkpt>
      <trkpt lat="50.25388" lon="3.65445">
        <ele>115.98</ele>
        <time>2016-08-31T08:40:22Z</time>
      </trkpt>
      <trkpt lat="50.25403" lon="3.65461">
        <ele>115.98</ele>
        <time>2016-08-31T08:40:37Z</time>
      </trkpt>
      <trkpt lat="50.25415" lon="3.65476">
        <ele>116.46</ele>
        <time>2016-08-31T08:40:50Z</time>
      </trkpt>
      <trkpt lat="50.25425" lon="3.65491">
        <ele>115.5</ele>
        <time>2016-08-31T08:41:02Z</time>
      </trkpt>
      <trkpt lat="50.25436" lon="3.65505">
        <ele>114.53</ele>
        <time>2016-08-31T08:41:14Z</time>
      </trkpt>
      <trkpt lat="50.25448" lon="3.65522">
        <ele>115.01</ele>
        <time>2016-08-31T08:41:27Z</time>
      </trkpt>
      <trkpt lat="50.25458" lon="3.65536">
        <ele>113.57</ele>
        <time>2016-08-31T08:41:40Z</time>
      </trkpt>
      <trkpt lat="50.25469" lon="3.65552">
        <ele>113.57</ele>
        <time>2016-08-31T08:41:53Z</time>
      </trkpt>
      <trkpt lat="50.25479" lon="3.6557">
        <ele>113.09</ele>
        <time>2016-08-31T08:42:07Z</time>
      </trkpt>
      <trkpt lat="50.25486" lon="3.656">
        <ele>113.09</ele>
        <time>2016-08-31T08:42:24Z</time>
      </trkpt>
      <trkpt lat="50.25491" lon="3.65624">
        <ele>111.65</ele>
        <time>2016-08-31T08:42:38Z</time>
      </trkpt>
      <trkpt lat="50.25497" lon="3.65648">
        <ele>111.17</ele>
        <time>2016-08-31T08:42:52Z</time>
      </trkpt>
      <trkpt lat="50.25505" lon="3.65681">
        <ele>110.21</ele>
        <time>2016-08-31T08:43:10Z</time>
      </trkpt>
      <trkpt lat="50.2551" lon="3.65707">
        <ele>109.73</ele>
        <time>2016-08-31T08:43:25Z</time>
      </trkpt>
      <trkpt lat="50.25515" lon="3.65732">
        <ele>108.29</ele>
        <time>2016-08-31T08:43:40Z</time>
      </trkpt>
      <trkpt lat="50.25522" lon="3.65762">
        <ele>107.81</ele>
        <time>2016-08-31T08:43:57Z</time>
      </trkpt>
      <trkpt lat="50.25523" lon="3.65774">
        <ele>107.81</ele>
        <time>2016-08-31T08:44:12Z</time>
      </trkpt>
      <trkpt lat="50.25522" lon="3.65777">
        <ele>107.81</ele>
        <time>2016-08-31T08:44:37Z</time>
      </trkpt>
      <trkpt lat="50.25523" lon="3.65777">
        <ele>107.81</ele>
        <time>2016-08-31T08:45:09Z</time>
      </trkpt>
      <trkpt lat="50.25524" lon="3.65778">
        <ele>107.81</ele>
        <time>2016-08-31T08:45:42Z</time>
      </trkpt>
      <trkpt lat="50.25522" lon="3.65778">
        <ele>107.81</ele>
        <time>2016-08-31T08:46:07Z</time>
      </trkpt>
      <trkpt lat="50.25523" lon="3.65777">
        <ele>107.81</ele>
        <time>2016-08-31T08:46:44Z</time>
      </trkpt>
      <trkpt lat="50.25522" lon="3.65778">
        <ele>107.81</ele>
        <time>2016-08-31T08:47:14Z</time>
      </trkpt>
      <trkpt lat="50.25522" lon="3.6578">
        <ele>107.81</ele>
        <time>2016-08-31T08:47:42Z</time>
      </trkpt>
      <trkpt lat="50.25522" lon="3.6578">
        <ele>107.81</ele>
        <time>2016-08-31T08:48:06Z</time>
      </trkpt>
      <trkpt lat="50.25523" lon="3.65777">
        <ele>107.81</ele>
        <time>2016-08-31T08:48:34Z</time>
      </trkpt>
      <trkpt lat="50.25523" lon="3.65778">
        <ele>107.81</ele>
        <time>2016-08-31T08:49:07Z</time>
      </trkpt>
      <trkpt lat="50.25525" lon="3.65777">
        <ele>107.81</ele>
        <time>2016-08-31T08:49:44Z</time>
      </trkpt>
      <trkpt lat="50.25522" lon="3.65778">
        <ele>107.81</ele>
        <time>2016-08-31T08:50:20Z</time>
      </trkpt>
      <trkpt lat="50.25523" lon="3.65781">
        <ele>107.81</ele>
        <time>2016-08-31T08:50:51Z</time>
      </trkpt>
      <trkpt lat="50.25525" lon="3.65783">
        <ele>108.29</ele>
        <time>2016-08-31T08:51:20Z</time>
      </trkpt>
      <trkpt lat="50.25522" lon="3.6578">
        <ele>108.29</ele>
        <time>2016-08-31T08:51:43Z</time>
      </trkpt>
      <trkpt lat="50.25521" lon="3.65777">
        <ele>108.29</ele>
        <time>2016-08-31T08:52:11Z</time>
      </trkpt>
      <trkpt lat="50.25525" lon="3.65785">
        <ele>107.81</ele>
        <time>2016-08-31T08:52:35Z</time>
      </trkpt>
      <trkpt lat="50.25525" lon="3.65789">
        <ele>108.29</ele>
        <time>2016-08-31T08:52:39Z</time>
      </trkpt>
      <trkpt lat="50.25521" lon="3.65815">
        <ele>107.81</ele>
        <time>2016-08-31T08:52:56Z</time>
      </trkpt>
      <trkpt lat="50.25519" lon="3.6584">
        <ele>107.32</ele>
        <time>2016-08-31T08:53:11Z</time>
      </trkpt>
      <trkpt lat="50.25516" lon="3.65862">
        <ele>106.84</ele>
        <time>2016-08-31T08:53:24Z</time>
      </trkpt>
      <trkpt lat="50.25513" lon="3.65892">
        <ele>106.84</ele>
        <time>2016-08-31T08:53:41Z</time>
      </trkpt>
      <trkpt lat="50.25507" lon="3.65914">
        <ele>106.36</ele>
        <time>2016-08-31T08:53:54Z</time>
      </trkpt>
      <trkpt lat="50.25506" lon="3.65936">
        <ele>106.36</ele>
        <time>2016-08-31T08:54:08Z</time>
      </trkpt>
      <trkpt lat="50.25511" lon="3.65967">
        <ele>105.88</ele>
        <time>2016-08-31T08:54:22Z</time>
      </trkpt>
      <trkpt lat="50.25524" lon="3.65984">
        <ele>105.88</ele>
        <time>2016-08-31T08:54:35Z</time>
      </trkpt>
      <trkpt lat="50.25537" lon="3.66005">
        <ele>104.92</ele>
        <time>2016-08-31T08:54:50Z</time>
      </trkpt>
      <trkpt lat="50.25547" lon="3.66021">
        <ele>104.92</ele>
        <time>2016-08-31T08:55:03Z</time>
      </trkpt>
      <trkpt lat="50.25552" lon="3.66027">
        <ele>105.4</ele>
        <time>2016-08-31T08:55:09Z</time>
      </trkpt>
      <trkpt lat="50.25555" lon="3.66036">
        <ele>104.44</ele>
        <time>2016-08-31T08:55:17Z</time>
      </trkpt>
      <trkpt lat="50.25552" lon="3.66051">
        <ele>104.44</ele>
        <time>2016-08-31T08:55:28Z</time>
      </trkpt>
      <trkpt lat="50.25546" lon="3.66076">
        <ele>104.92</ele>
        <time>2016-08-31T08:55:42Z</time>
      </trkpt>
      <trkpt lat="50.25545" lon="3.66079">
        <ele>103.96</ele>
        <time>2016-08-31T08:55:45Z</time>
      </trkpt>
      <trkpt lat="50.2554" lon="3.66108">
        <ele>104.92</ele>
        <time>2016-08-31T08:55:58Z</time>
      </trkpt>
      <trkpt lat="50.25539" lon="3.66117">
        <ele>104.92</ele>
        <time>2016-08-31T08:56:03Z</time>
      </trkpt>
      <trkpt lat="50.25538" lon="3.66145">
        <ele>105.4</ele>
        <time>2016-08-31T08:56:20Z</time>
      </trkpt>
      <trkpt lat="50.25536" lon="3.66175">
        <ele>105.4</ele>
        <time>2016-08-31T08:56:36Z</time>
      </trkpt>
      <trkpt lat="50.25535" lon="3.662">
        <ele>105.88</ele>
        <time>2016-08-31T08:56:48Z</time>
      </trkpt>
      <trkpt lat="50.25528" lon="3.66227">
        <ele>105.88</ele>
        <time>2016-08-31T08:57:04Z</time>
      </trkpt>
      <trkpt lat="50.25519" lon="3.66249">
        <ele>105.4</ele>
        <time>2016-08-31T08:57:19Z</time>
      </trkpt>
      <trkpt lat="50.25511" lon="3.66269">
        <ele>105.88</ele>
        <time>2016-08-31T08:57:32Z</time>
      </trkpt>
      <trkpt lat="50.25503" lon="3.66295">
        <ele>105.88</ele>
        <time>2016-08-31T08:57:47Z</time>
      </trkpt>
      <trkpt lat="50.25497" lon="3.66321">
        <ele>105.88</ele>
        <time>2016-08-31T08:58:02Z</time>
      </trkpt>
      <trkpt lat="50.25494" lon="3.66344">
        <ele>107.32</ele>
        <time>2016-08-31T08:58:16Z</time>
      </trkpt>
      <trkpt lat="50.2549" lon="3.6637">
        <ele>108.29</ele>
        <time>2016-08-31T08:58:30Z</time>
      </trkpt>
      <trkpt lat="50.25498" lon="3.66388">
        <ele>108.77</ele>
        <time>2016-08-31T08:58:43Z</time>
      </trkpt>
      <trkpt lat="50.25508" lon="3.66406">
        <ele>111.17</ele>
        <time>2016-08-31T08:58:56Z</time>
      </trkpt>
      <trkpt lat="50.25514" lon="3.66414">
        <ele>111.17</ele>
        <time>2016-08-31T08:59:02Z</time>
      </trkpt>
      <trkpt lat="50.25523" lon="3.66428">
        <ele>111.65</ele>
        <time>2016-08-31T08:59:14Z</time>
      </trkpt>
      <trkpt lat="50.25528" lon="3.66444">
        <ele>112.13</ele>
        <time>2016-08-31T08:59:25Z</time>
      </trkpt>
      <trkpt lat="50.25534" lon="3.66448">
        <ele>115.01</ele>
        <time>2016-08-31T08:59:31Z</time>
      </trkpt>
      <trkpt lat="50.25538" lon="3.66448">
        <ele>114.05</ele>
        <time>2016-08-31T08:59:35Z</time>
      </trkpt>
      <trkpt lat="50.25541" lon="3.66444">
        <ele>115.01</ele>
        <time>2016-08-31T08:59:37Z</time>
      </trkpt>
      <trkpt lat="50.25552" lon="3.66422">
        <ele>115.98</ele>
        <time>2016-08-31T08:59:51Z</time>
      </trkpt>
      <trkpt lat="50.2556" lon="3.66407">
        <ele>117.9</ele>
        <time>2016-08-31T09:00:04Z</time>
      </trkpt>
      <trkpt lat="50.25572" lon="3.664">
        <ele>118.38</ele>
        <time>2016-08-31T09:00:16Z</time>
      </trkpt>
      <trkpt lat="50.25587" lon="3.66413">
        <ele>119.82</ele>
        <time>2016-08-31T09:00:30Z</time>
      </trkpt>
      <trkpt lat="50.256" lon="3.66432">
        <ele>119.82</ele>
        <time>2016-08-31T09:00:44Z</time>
      </trkpt>
      <trkpt lat="50.25612" lon="3.66446">
        <ele>120.3</ele>
        <time>2016-08-31T09:00:57Z</time>
      </trkpt>
      <trkpt lat="50.25623" lon="3.66467">
        <ele>121.26</ele>
        <time>2016-08-31T09:01:13Z</time>
      </trkpt>
      <trkpt lat="50.25636" lon="3.66486">
        <ele>121.26</ele>
        <time>2016-08-31T09:01:27Z</time>
      </trkpt>
      <trkpt lat="50.2565" lon="3.66504">
        <ele>121.74</ele>
        <time>2016-08-31T09:01:42Z</time>
      </trkpt>
      <trkpt lat="50.25663" lon="3.66515">
        <ele>122.22</ele>
        <time>2016-08-31T09:01:55Z</time>
      </trkpt>
      <trkpt lat="50.25671" lon="3.66525">
        <ele>121.26</ele>
        <time>2016-08-31T09:02:09Z</time>
      </trkpt>
      <trkpt lat="50.25671" lon="3.66523">
        <ele>122.22</ele>
        <time>2016-08-31T09:02:35Z</time>
      </trkpt>
      <trkpt lat="50.25675" lon="3.66524">
        <ele>120.78</ele>
        <time>2016-08-31T09:02:58Z</time>
      </trkpt>
      <trkpt lat="50.25672" lon="3.66524">
        <ele>121.74</ele>
        <time>2016-08-31T09:03:32Z</time>
      </trkpt>
      <trkpt lat="50.25677" lon="3.66525">
        <ele>121.26</ele>
        <time>2016-08-31T09:03:49Z</time>
      </trkpt>
      <trkpt lat="50.25691" lon="3.66525">
        <ele>120.78</ele>
        <time>2016-08-31T09:04:05Z</time>
      </trkpt>
      <trkpt lat="50.25701" lon="3.6654">
        <ele>120.78</ele>
        <time>2016-08-31T09:04:22Z</time>
      </trkpt>
      <trkpt lat="50.25714" lon="3.66556">
        <ele>122.71</ele>
        <time>2016-08-31T09:04:38Z</time>
      </trkpt>
      <trkpt lat="50.25728" lon="3.66572">
        <ele>123.19</ele>
        <time>2016-08-31T09:04:53Z</time>
      </trkpt>
      <trkpt lat="50.25744" lon="3.66585">
        <ele>123.19</ele>
        <time>2016-08-31T09:05:09Z</time>
      </trkpt>
      <trkpt lat="50.25758" lon="3.666">
        <ele>124.63</ele>
        <time>2016-08-31T09:05:24Z</time>
      </trkpt>
      <trkpt lat="50.25772" lon="3.66612">
        <ele>125.11</ele>
        <time>2016-08-31T09:05:39Z</time>
      </trkpt>
      <trkpt lat="50.25786" lon="3.66625">
        <ele>126.07</ele>
        <time>2016-08-31T09:05:52Z</time>
      </trkpt>
      <trkpt lat="50.25797" lon="3.66637">
        <ele>126.07</ele>
        <time>2016-08-31T09:06:05Z</time>
      </trkpt>
      <trkpt lat="50.25811" lon="3.66652">
        <ele>126.55</ele>
        <time>2016-08-31T09:06:20Z</time>
      </trkpt>
      <trkpt lat="50.25823" lon="3.66666">
        <ele>126.55</ele>
        <time>2016-08-31T09:06:34Z</time>
      </trkpt>
      <trkpt lat="50.25839" lon="3.66681">
        <ele>127.51</ele>
        <time>2016-08-31T09:06:51Z</time>
      </trkpt>
      <trkpt lat="50.25842" lon="3.66687">
        <ele>127.99</ele>
        <time>2016-08-31T09:06:55Z</time>
      </trkpt>
      <trkpt lat="50.25858" lon="3.66702">
        <ele>128.95</ele>
        <time>2016-08-31T09:07:10Z</time>
      </trkpt>
      <trkpt lat="50.25871" lon="3.66713">
        <ele>128.47</ele>
        <time>2016-08-31T09:07:24Z</time>
      </trkpt>
      <trkpt lat="50.25889" lon="3.66725">
        <ele>129.92</ele>
        <time>2016-08-31T09:07:40Z</time>
      </trkpt>
      <trkpt lat="50.25904" lon="3.66738">
        <ele>129.92</ele>
        <time>2016-08-31T09:07:55Z</time>
      </trkpt>
      <trkpt lat="50.25917" lon="3.66757">
        <ele>130.88</ele>
        <time>2016-08-31T09:08:12Z</time>
      </trkpt>
      <trkpt lat="50.25919" lon="3.66763">
        <ele>130.88</ele>
        <time>2016-08-31T09:08:17Z</time>
      </trkpt>
      <trkpt lat="50.25922" lon="3.66782">
        <ele>131.36</ele>
        <time>2016-08-31T09:08:29Z</time>
      </trkpt>
      <trkpt lat="50.25925" lon="3.66787">
        <ele>131.36</ele>
        <time>2016-08-31T09:08:47Z</time>
      </trkpt>
      <trkpt lat="50.25924" lon="3.668">
        <ele>131.36</ele>
        <time>2016-08-31T09:08:58Z</time>
      </trkpt>
      <trkpt lat="50.25917" lon="3.66827">
        <ele>131.36</ele>
        <time>2016-08-31T09:09:17Z</time>
      </trkpt>
      <trkpt lat="50.25916" lon="3.66832">
        <ele>132.32</ele>
        <time>2016-08-31T09:09:20Z</time>
      </trkpt>
      <trkpt lat="50.25909" lon="3.66853">
        <ele>131.36</ele>
        <time>2016-08-31T09:09:32Z</time>
      </trkpt>
      <trkpt lat="50.25903" lon="3.66877">
        <ele>132.32</ele>
        <time>2016-08-31T09:09:46Z</time>
      </trkpt>
      <trkpt lat="50.25898" lon="3.66906">
        <ele>131.84</ele>
        <time>2016-08-31T09:10:01Z</time>
      </trkpt>
      <trkpt lat="50.25893" lon="3.66929">
        <ele>131.36</ele>
        <time>2016-08-31T09:10:14Z</time>
      </trkpt>
      <trkpt lat="50.25888" lon="3.66954">
        <ele>131.84</ele>
        <time>2016-08-31T09:10:29Z</time>
      </trkpt>
      <trkpt lat="50.25884" lon="3.66979">
        <ele>130.88</ele>
        <time>2016-08-31T09:10:45Z</time>
      </trkpt>
      <trkpt lat="50.25879" lon="3.67007">
        <ele>130.4</ele>
        <time>2016-08-31T09:11:01Z</time>
      </trkpt>
      <trkpt lat="50.25874" lon="3.67029">
        <ele>130.88</ele>
        <time>2016-08-31T09:11:17Z</time>
      </trkpt>
      <trkpt lat="50.25871" lon="3.67042">
        <ele>130.4</ele>
        <time>2016-08-31T09:11:27Z</time>
      </trkpt>
      <trkpt lat="50.2587" lon="3.67044">
        <ele>130.88</ele>
        <time>2016-08-31T09:11:29Z</time>
      </trkpt>
      <trkpt lat="50.25869" lon="3.67049">
        <ele>129.92</ele>
        <time>2016-08-31T09:11:32Z</time>
      </trkpt>
      <trkpt lat="50.25861" lon="3.67067">
        <ele>130.4</ele>
        <time>2016-08-31T09:11:47Z</time>
      </trkpt>
      <trkpt lat="50.25853" lon="3.6708">
        <ele>129.43</ele>
        <time>2016-08-31T09:12:00Z</time>
      </trkpt>
      <trkpt lat="50.25841" lon="3.67092">
        <ele>129.43</ele>
        <time>2016-08-31T09:12:13Z</time>
      </trkpt>
      <trkpt lat="50.25827" lon="3.67106">
        <ele>129.92</ele>
        <time>2016-08-31T09:12:28Z</time>
      </trkpt>
      <trkpt lat="50.25815" lon="3.67124">
        <ele>129.43</ele>
        <time>2016-08-31T09:12:42Z</time>
      </trkpt>
      <trkpt lat="50.25807" lon="3.67142">
        <ele>128.95</ele>
        <time>2016-08-31T09:12:55Z</time>
      </trkpt>
      <trkpt lat="50.25801" lon="3.67163">
        <ele>129.43</ele>
        <time>2016-08-31T09:13:08Z</time>
      </trkpt>
      <trkpt lat="50.25797" lon="3.67184">
        <ele>128.95</ele>
        <time>2016-08-31T09:13:21Z</time>
      </trkpt>
      <trkpt lat="50.25793" lon="3.67205">
        <ele>128.95</ele>
        <time>2016-08-31T09:13:33Z</time>
      </trkpt>
      <trkpt lat="50.25786" lon="3.67231">
        <ele>128.47</ele>
        <time>2016-08-31T09:13:48Z</time>
      </trkpt>
      <trkpt lat="50.2578" lon="3.67255">
        <ele>129.43</ele>
        <time>2016-08-31T09:14:03Z</time>
      </trkpt>
      <trkpt lat="50.25771" lon="3.67281">
        <ele>128.47</ele>
        <time>2016-08-31T09:14:19Z</time>
      </trkpt>
      <trkpt lat="50.25764" lon="3.67299">
        <ele>128.95</ele>
        <time>2016-08-31T09:14:33Z</time>
      </trkpt>
      <trkpt lat="50.25757" lon="3.67315">
        <ele>128.95</ele>
        <time>2016-08-31T09:14:44Z</time>
      </trkpt>
      <trkpt lat="50.25755" lon="3.67318">
        <ele>129.43</ele>
        <time>2016-08-31T09:14:48Z</time>
      </trkpt>
      <trkpt lat="50.25743" lon="3.67331">
        <ele>130.88</ele>
        <time>2016-08-31T09:15:04Z</time>
      </trkpt>
      <trkpt lat="50.2573" lon="3.67341">
        <ele>129.92</ele>
        <time>2016-08-31T09:15:17Z</time>
      </trkpt>
      <trkpt lat="50.25729" lon="3.67342">
        <ele>129.92</ele>
        <time>2016-08-31T09:15:18Z</time>
      </trkpt>
      <trkpt lat="50.25715" lon="3.67354">
        <ele>129.43</ele>
        <time>2016-08-31T09:15:32Z</time>
      </trkpt>
      <trkpt lat="50.2571" lon="3.67358">
        <ele>129.43</ele>
        <time>2016-08-31T09:15:37Z</time>
      </trkpt>
      <trkpt lat="50.25696" lon="3.67375">
        <ele>129.92</ele>
        <time>2016-08-31T09:15:52Z</time>
      </trkpt>
      <trkpt lat="50.25686" lon="3.67399">
        <ele>130.4</ele>
        <time>2016-08-31T09:16:08Z</time>
      </trkpt>
      <trkpt lat="50.25678" lon="3.67417">
        <ele>129.92</ele>
        <time>2016-08-31T09:16:22Z</time>
      </trkpt>
      <trkpt lat="50.25672" lon="3.67434">
        <ele>130.4</ele>
        <time>2016-08-31T09:16:34Z</time>
      </trkpt>
      <trkpt lat="50.25665" lon="3.67452">
        <ele>129.92</ele>
        <time>2016-08-31T09:16:46Z</time>
      </trkpt>
      <trkpt lat="50.25657" lon="3.67469">
        <ele>130.4</ele>
        <time>2016-08-31T09:16:58Z</time>
      </trkpt>
      <trkpt lat="50.25647" lon="3.67483">
        <ele>130.4</ele>
        <time>2016-08-31T09:17:10Z</time>
      </trkpt>
      <trkpt lat="50.2564" lon="3.67493">
        <ele>129.43</ele>
        <time>2016-08-31T09:17:19Z</time>
      </trkpt>
      <trkpt lat="50.25639" lon="3.67496">
        <ele>129.92</ele>
        <time>2016-08-31T09:17:21Z</time>
      </trkpt>
      <trkpt lat="50.25636" lon="3.67499">
        <ele>129.92</ele>
        <time>2016-08-31T09:17:24Z</time>
      </trkpt>
      <trkpt lat="50.25627" lon="3.67512">
        <ele>129.92</ele>
        <time>2016-08-31T09:17:36Z</time>
      </trkpt>
      <trkpt lat="50.25616" lon="3.67527">
        <ele>129.43</ele>
        <time>2016-08-31T09:17:49Z</time>
      </trkpt>
      <trkpt lat="50.25607" lon="3.6754">
        <ele>128.95</ele>
        <time>2016-08-31T09:18:00Z</time>
      </trkpt>
      <trkpt lat="50.25597" lon="3.67555">
        <ele>129.43</ele>
        <time>2016-08-31T09:18:13Z</time>
      </trkpt>
      <trkpt lat="50.2559" lon="3.67568">
        <ele>127.99</ele>
        <time>2016-08-31T09:18:24Z</time>
      </trkpt>
      <trkpt lat="50.25581" lon="3.67582">
        <ele>128.95</ele>
        <time>2016-08-31T09:18:35Z</time>
      </trkpt>
      <trkpt lat="50.25579" lon="3.67586">
        <ele>128.95</ele>
        <time>2016-08-31T09:18:38Z</time>
      </trkpt>
      <trkpt lat="50.25568" lon="3.67603">
        <ele>128.47</ele>
        <time>2016-08-31T09:18:52Z</time>
      </trkpt>
      <trkpt lat="50.25559" lon="3.67619">
        <ele>129.43</ele>
        <time>2016-08-31T09:19:04Z</time>
      </trkpt>
      <trkpt lat="50.25551" lon="3.67633">
        <ele>128.95</ele>
        <time>2016-08-31T09:19:15Z</time>
      </trkpt>
      <trkpt lat="50.25544" lon="3.67648">
        <ele>128.47</ele>
        <time>2016-08-31T09:19:26Z</time>
      </trkpt>
      <trkpt lat="50.25539" lon="3.67656">
        <ele>128.95</ele>
        <time>2016-08-31T09:19:33Z</time>
      </trkpt>
      <trkpt lat="50.25531" lon="3.67673">
        <ele>128.95</ele>
        <time>2016-08-31T09:19:45Z</time>
      </trkpt>
      <trkpt lat="50.25524" lon="3.67689">
        <ele>129.43</ele>
        <time>2016-08-31T09:19:56Z</time>
      </trkpt>
      <trkpt lat="50.25518" lon="3.67709">
        <ele>129.43</ele>
        <time>2016-08-31T09:20:08Z</time>
      </trkpt>
      <trkpt lat="50.25512" lon="3.6773">
        <ele>129.43</ele>
        <time>2016-08-31T09:20:21Z</time>
      </trkpt>
      <trkpt lat="50.25507" lon="3.6775">
        <ele>129.43</ele>
        <time>2016-08-31T09:20:34Z</time>
      </trkpt>
      <trkpt lat="50.25501" lon="3.67768">
        <ele>129.43</ele>
        <time>2016-08-31T09:20:46Z</time>
      </trkpt>
      <trkpt lat="50.25494" lon="3.67786">
        <ele>129.92</ele>
        <time>2016-08-31T09:20:59Z</time>
      </trkpt>
      <trkpt lat="50.25486" lon="3.67806">
        <ele>129.92</ele>
        <time>2016-08-31T09:21:12Z</time>
      </trkpt>
      <trkpt lat="50.25479" lon="3.67821">
        <ele>129.92</ele>
        <time>2016-08-31T09:21:23Z</time>
      </trkpt>
      <trkpt lat="50.2547" lon="3.67835">
        <ele>129.92</ele>
        <time>2016-08-31T09:21:35Z</time>
      </trkpt>
      <trkpt lat="50.25461" lon="3.67847">
        <ele>129.92</ele>
        <time>2016-08-31T09:21:46Z</time>
      </trkpt>
      <trkpt lat="50.25457" lon="3.67851">
        <ele>129.92</ele>
        <time>2016-08-31T09:21:50Z</time>
      </trkpt>
      <trkpt lat="50.25453" lon="3.67856">
        <ele>129.92</ele>
        <time>2016-08-31T09:21:55Z</time>
      </trkpt>
      <trkpt lat="50.2545" lon="3.67861">
        <ele>130.4</ele>
        <time>2016-08-31T09:22:00Z</time>
      </trkpt>
      <trkpt lat="50.25446" lon="3.67865">
        <ele>130.88</ele>
        <time>2016-08-31T09:22:05Z</time>
      </trkpt>
      <trkpt lat="50.25444" lon="3.67868">
        <ele>129.43</ele>
        <time>2016-08-31T09:22:07Z</time>
      </trkpt>
      <trkpt lat="50.25433" lon="3.67877">
        <ele>130.4</ele>
        <time>2016-08-31T09:22:19Z</time>
      </trkpt>
      <trkpt lat="50.25424" lon="3.67885">
        <ele>130.4</ele>
        <time>2016-08-31T09:22:30Z</time>
      </trkpt>
      <trkpt lat="50.25414" lon="3.67894">
        <ele>130.88</ele>
        <time>2016-08-31T09:22:41Z</time>
      </trkpt>
      <trkpt lat="50.25404" lon="3.67906">
        <ele>130.88</ele>
        <time>2016-08-31T09:22:52Z</time>
      </trkpt>
      <trkpt lat="50.25393" lon="3.67921">
        <ele>130.88</ele>
        <time>2016-08-31T09:23:04Z</time>
      </trkpt>
      <trkpt lat="50.25383" lon="3.67938">
        <ele>130.4</ele>
        <time>2016-08-31T09:23:16Z</time>
      </trkpt>
      <trkpt lat="50.25375" lon="3.67955">
        <ele>131.36</ele>
        <time>2016-08-31T09:23:28Z</time>
      </trkpt>
      <trkpt lat="50.25367" lon="3.67975">
        <ele>131.84</ele>
        <time>2016-08-31T09:23:41Z</time>
      </trkpt>
      <trkpt lat="50.2536" lon="3.67992">
        <ele>131.36</ele>
        <time>2016-08-31T09:23:54Z</time>
      </trkpt>
      <trkpt lat="50.25353" lon="3.68008">
        <ele>131.84</ele>
        <time>2016-08-31T09:24:05Z</time>
      </trkpt>
      <trkpt lat="50.25345" lon="3.68026">
        <ele>131.36</ele>
        <time>2016-08-31T09:24:18Z</time>
      </trkpt>
      <trkpt lat="50.25337" lon="3.68044">
        <ele>131.84</ele>
        <time>2016-08-31T09:24:30Z</time>
      </trkpt>
      <trkpt lat="50.25328" lon="3.68062">
        <ele>131.36</ele>
        <time>2016-08-31T09:24:43Z</time>
      </trkpt>
      <trkpt lat="50.25321" lon="3.6808">
        <ele>131.84</ele>
        <time>2016-08-31T09:24:56Z</time>
      </trkpt>
      <trkpt lat="50.25317" lon="3.68091">
        <ele>131.84</ele>
        <time>2016-08-31T09:25:03Z</time>
      </trkpt>
      <trkpt lat="50.25307" lon="3.6811">
        <ele>132.8</ele>
        <time>2016-08-31T09:25:17Z</time>
      </trkpt>
      <trkpt lat="50.253" lon="3.68123">
        <ele>132.8</ele>
        <time>2016-08-31T09:25:27Z</time>
      </trkpt>
      <trkpt lat="50.25292" lon="3.68144">
        <ele>133.28</ele>
        <time>2016-08-31T09:25:41Z</time>
      </trkpt>
      <trkpt lat="50.25285" lon="3.68162">
        <ele>133.28</ele>
        <time>2016-08-31T09:25:54Z</time>
      </trkpt>
      <trkpt lat="50.25276" lon="3.68189">
        <ele>133.76</ele>
        <time>2016-08-31T09:26:10Z</time>
      </trkpt>
      <trkpt lat="50.25269" lon="3.6821">
        <ele>133.76</ele>
        <time>2016-08-31T09:26:24Z</time>
      </trkpt>
      <trkpt lat="50.25263" lon="3.68226">
        <ele>134.24</ele>
        <time>2016-08-31T09:26:35Z</time>
      </trkpt>
      <trkpt lat="50.25252" lon="3.68245">
        <ele>133.76</ele>
        <time>2016-08-31T09:26:49Z</time>
      </trkpt>
      <trkpt lat="50.25247" lon="3.68253">
        <ele>133.76</ele>
        <time>2016-08-31T09:26:55Z</time>
      </trkpt>
      <trkpt lat="50.25232" lon="3.68266">
        <ele>133.76</ele>
        <time>2016-08-31T09:27:10Z</time>
      </trkpt>
      <trkpt lat="50.2522" lon="3.68275">
        <ele>133.28</ele>
        <time>2016-08-31T09:27:22Z</time>
      </trkpt>
      <trkpt lat="50.25208" lon="3.68286">
        <ele>132.8</ele>
        <time>2016-08-31T09:27:34Z</time>
      </trkpt>
      <trkpt lat="50.25194" lon="3.68294">
        <ele>132.8</ele>
        <time>2016-08-31T09:27:47Z</time>
      </trkpt>
      <trkpt lat="50.25193" lon="3.68295">
        <ele>132.8</ele>
        <time>2016-08-31T09:27:48Z</time>
      </trkpt>
      <trkpt lat="50.25181" lon="3.68292">
        <ele>133.28</ele>
        <time>2016-08-31T09:28:02Z</time>
      </trkpt>
      <trkpt lat="50.25178" lon="3.68289">
        <ele>132.32</ele>
        <time>2016-08-31T09:28:06Z</time>
      </trkpt>
      <trkpt lat="50.25168" lon="3.68276">
        <ele>133.28</ele>
        <time>2016-08-31T09:28:20Z</time>
      </trkpt>
      <trkpt lat="50.25156" lon="3.68262">
        <ele>131.84</ele>
        <time>2016-08-31T09:28:31Z</time>
      </trkpt>
      <trkpt lat="50.25143" lon="3.68246">
        <ele>131.84</ele>
        <time>2016-08-31T09:28:45Z</time>
      </trkpt>
      <trkpt lat="50.2513" lon="3.68229">
        <ele>130.88</ele>
        <time>2016-08-31T09:28:58Z</time>
      </trkpt>
      <trkpt lat="50.25119" lon="3.68214">
        <ele>130.88</ele>
        <time>2016-08-31T09:29:11Z</time>
      </trkpt>
      <trkpt lat="50.25105" lon="3.68198">
        <ele>130.4</ele>
        <time>2016-08-31T09:29:24Z</time>
      </trkpt>
      <trkpt lat="50.25092" lon="3.68183">
        <ele>130.88</ele>
        <time>2016-08-31T09:29:38Z</time>
      </trkpt>
      <trkpt lat="50.25077" lon="3.68166">
        <ele>130.88</ele>
        <time>2016-08-31T09:29:53Z</time>
      </trkpt>
      <trkpt lat="50.25064" lon="3.68149">
        <ele>129.92</ele>
        <time>2016-08-31T09:30:08Z</time>
      </trkpt>
      <trkpt lat="50.25061" lon="3.68144">
        <ele>130.88</ele>
        <time>2016-08-31T09:30:12Z</time>
      </trkpt>
      <trkpt lat="50.25047" lon="3.68128">
        <ele>130.4</ele>
        <time>2016-08-31T09:30:27Z</time>
      </trkpt>
      <trkpt lat="50.25033" lon="3.68109">
        <ele>130.88</ele>
        <time>2016-08-31T09:30:42Z</time>
      </trkpt>
      <trkpt lat="50.2502" lon="3.68095">
        <ele>131.84</ele>
        <time>2016-08-31T09:30:56Z</time>
      </trkpt>
      <trkpt lat="50.25015" lon="3.6809">
        <ele>131.84</ele>
        <time>2016-08-31T09:31:01Z</time>
      </trkpt>
      <trkpt lat="50.25011" lon="3.68092">
        <ele>131.84</ele>
        <time>2016-08-31T09:31:04Z</time>
      </trkpt>
      <trkpt lat="50.2501" lon="3.68094">
        <ele>132.32</ele>
        <time>2016-08-31T09:31:06Z</time>
      </trkpt>
      <trkpt lat="50.25008" lon="3.681">
        <ele>132.32</ele>
        <time>2016-08-31T09:31:10Z</time>
      </trkpt>
      <trkpt lat="50.25012" lon="3.68108">
        <ele>132.32</ele>
        <time>2016-08-31T09:31:15Z</time>
      </trkpt>
      <trkpt lat="50.25016" lon="3.68114">
        <ele>132.32</ele>
        <time>2016-08-31T09:31:30Z</time>
      </trkpt>
      <trkpt lat="50.25015" lon="3.68112">
        <ele>132.32</ele>
        <time>2016-08-31T09:32:00Z</time>
      </trkpt>
      <trkpt lat="50.25013" lon="3.68105">
        <ele>131.84</ele>
        <time>2016-08-31T09:32:04Z</time>
      </trkpt>
      <trkpt lat="50.25013" lon="3.68101">
        <ele>132.32</ele>
        <time>2016-08-31T09:32:06Z</time>
      </trkpt>
      <trkpt lat="50.25012" lon="3.68098">
        <ele>131.84</ele>
        <time>2016-08-31T09:32:09Z</time>
      </trkpt>
      <trkpt lat="50.25013" lon="3.68096">
        <ele>132.32</ele>
        <time>2016-08-31T09:32:11Z</time>
      </trkpt>
      <trkpt lat="50.25007" lon="3.68079">
        <ele>132.32</ele>
        <time>2016-08-31T09:32:22Z</time>
      </trkpt>
      <trkpt lat="50.24993" lon="3.6806">
        <ele>132.8</ele>
        <time>2016-08-31T09:32:36Z</time>
      </trkpt>
      <trkpt lat="50.24981" lon="3.68046">
        <ele>132.32</ele>
        <time>2016-08-31T09:32:48Z</time>
      </trkpt>
      <trkpt lat="50.24969" lon="3.68034">
        <ele>133.76</ele>
        <time>2016-08-31T09:33:00Z</time>
      </trkpt>
      <trkpt lat="50.24963" lon="3.68028">
        <ele>133.76</ele>
        <time>2016-08-31T09:33:06Z</time>
      </trkpt>
      <trkpt lat="50.24949" lon="3.68012">
        <ele>134.72</ele>
        <time>2016-08-31T09:33:21Z</time>
      </trkpt>
      <trkpt lat="50.24939" lon="3.68002">
        <ele>134.24</ele>
        <time>2016-08-31T09:33:33Z</time>
      </trkpt>
      <trkpt lat="50.24937" lon="3.68">
        <ele>135.68</ele>
        <time>2016-08-31T09:33:35Z</time>
      </trkpt>
      <trkpt lat="50.24924" lon="3.67986">
        <ele>135.68</ele>
        <time>2016-08-31T09:33:49Z</time>
      </trkpt>
      <trkpt lat="50.24917" lon="3.67979">
        <ele>136.16</ele>
        <time>2016-08-31T09:34:01Z</time>
      </trkpt>
      <trkpt lat="50.2491" lon="3.67972">
        <ele>132.32</ele>
        <time>2016-08-31T09:34:08Z</time>
      </trkpt>
      <trkpt lat="50.24909" lon="3.67972">
        <ele>139.53</ele>
        <time>2016-08-31T09:34:09Z</time>
      </trkpt>
      <trkpt lat="50.24909" lon="3.67972">
        <ele>135.68</ele>
        <time>2016-08-31T09:34:10Z</time>
      </trkpt>
      <trkpt lat="50.24905" lon="3.67969">
        <ele>136.16</ele>
        <time>2016-08-31T09:34:30Z</time>
      </trkpt>
      <trkpt lat="50.24906" lon="3.67978">
        <ele>135.68</ele>
        <time>2016-08-31T09:34:54Z</time>
      </trkpt>
      <trkpt lat="50.24902" lon="3.67974">
        <ele>135.68</ele>
        <time>2016-08-31T09:35:19Z</time>
      </trkpt>
      <trkpt lat="50.24906" lon="3.67977">
        <ele>136.16</ele>
        <time>2016-08-31T09:35:45Z</time>
      </trkpt>
      <trkpt lat="50.24909" lon="3.67974">
        <ele>135.68</ele>
        <time>2016-08-31T09:36:12Z</time>
      </trkpt>
      <trkpt lat="50.24908" lon="3.67976">
        <ele>136.16</ele>
        <time>2016-08-31T09:36:46Z</time>
      </trkpt>
      <trkpt lat="50.24909" lon="3.67977">
        <ele>136.16</ele>
        <time>2016-08-31T09:37:14Z</time>
      </trkpt>
      <trkpt lat="50.24906" lon="3.67974">
        <ele>136.16</ele>
        <time>2016-08-31T09:37:41Z</time>
      </trkpt>
      <trkpt lat="50.249" lon="3.67967">
        <ele>136.16</ele>
        <time>2016-08-31T09:37:49Z</time>
      </trkpt>
      <trkpt lat="50.24897" lon="3.67966">
        <ele>136.64</ele>
        <time>2016-08-31T09:37:52Z</time>
      </trkpt>
      <trkpt lat="50.24887" lon="3.67988">
        <ele>136.64</ele>
        <time>2016-08-31T09:38:06Z</time>
      </trkpt>
      <trkpt lat="50.24878" lon="3.68007">
        <ele>137.13</ele>
        <time>2016-08-31T09:38:20Z</time>
      </trkpt>
      <trkpt lat="50.24872" lon="3.68024">
        <ele>137.13</ele>
        <time>2016-08-31T09:38:32Z</time>
      </trkpt>
      <trkpt lat="50.24869" lon="3.68033">
        <ele>137.13</ele>
        <time>2016-08-31T09:38:38Z</time>
      </trkpt>
      <trkpt lat="50.24869" lon="3.68036">
        <ele>136.64</ele>
        <time>2016-08-31T09:38:40Z</time>
      </trkpt>
      <trkpt lat="50.24869" lon="3.68047">
        <ele>136.64</ele>
        <time>2016-08-31T09:38:46Z</time>
      </trkpt>
      <trkpt lat="50.24872" lon="3.68061">
        <ele>136.64</ele>
        <time>2016-08-31T09:38:53Z</time>
      </trkpt>
      <trkpt lat="50.24887" lon="3.68077">
        <ele>136.64</ele>
        <time>2016-08-31T09:39:07Z</time>
      </trkpt>
      <trkpt lat="50.24903" lon="3.68089">
        <ele>137.13</ele>
        <time>2016-08-31T09:39:21Z</time>
      </trkpt>
      <trkpt lat="50.24918" lon="3.68102">
        <ele>136.16</ele>
        <time>2016-08-31T09:39:35Z</time>
      </trkpt>
      <trkpt lat="50.2493" lon="3.68115">
        <ele>136.16</ele>
        <time>2016-08-31T09:39:50Z</time>
      </trkpt>
      <trkpt lat="50.24947" lon="3.68133">
        <ele>136.16</ele>
        <time>2016-08-31T09:40:07Z</time>
      </trkpt>
      <trkpt lat="50.24962" lon="3.68146">
        <ele>135.2</ele>
        <time>2016-08-31T09:40:22Z</time>
      </trkpt>
      <trkpt lat="50.24981" lon="3.68161">
        <ele>135.2</ele>
        <time>2016-08-31T09:40:38Z</time>
      </trkpt>
      <trkpt lat="50.24996" lon="3.68177">
        <ele>134.24</ele>
        <time>2016-08-31T09:40:54Z</time>
      </trkpt>
      <trkpt lat="50.25002" lon="3.68203">
        <ele>133.76</ele>
        <time>2016-08-31T09:41:09Z</time>
      </trkpt>
      <trkpt lat="50.25002" lon="3.6821">
        <ele>133.28</ele>
        <time>2016-08-31T09:41:13Z</time>
      </trkpt>
      <trkpt lat="50.25011" lon="3.68236">
        <ele>132.8</ele>
        <time>2016-08-31T09:41:28Z</time>
      </trkpt>
      <trkpt lat="50.2502" lon="3.68259">
        <ele>131.84</ele>
        <time>2016-08-31T09:41:43Z</time>
      </trkpt>
      <trkpt lat="50.25028" lon="3.6828">
        <ele>132.32</ele>
        <time>2016-08-31T09:41:57Z</time>
      </trkpt>
      <trkpt lat="50.25038" lon="3.68302">
        <ele>131.84</ele>
        <time>2016-08-31T09:42:11Z</time>
      </trkpt>
      <trkpt lat="50.25048" lon="3.68325">
        <ele>132.32</ele>
        <time>2016-08-31T09:42:26Z</time>
      </trkpt>
      <trkpt lat="50.25057" lon="3.68346">
        <ele>132.32</ele>
        <time>2016-08-31T09:42:39Z</time>
      </trkpt>
      <trkpt lat="50.25066" lon="3.68367">
        <ele>131.36</ele>
        <time>2016-08-31T09:42:53Z</time>
      </trkpt>
      <trkpt lat="50.25067" lon="3.6837">
        <ele>132.32</ele>
        <time>2016-08-31T09:42:55Z</time>
      </trkpt>
      <trkpt lat="50.25078" lon="3.68392">
        <ele>132.32</ele>
        <time>2016-08-31T09:43:10Z</time>
      </trkpt>
      <trkpt lat="50.25088" lon="3.68411">
        <ele>132.32</ele>
        <time>2016-08-31T09:43:24Z</time>
      </trkpt>
      <trkpt lat="50.25095" lon="3.6843">
        <ele>131.84</ele>
        <time>2016-08-31T09:43:36Z</time>
      </trkpt>
      <trkpt lat="50.25103" lon="3.68449">
        <ele>133.28</ele>
        <time>2016-08-31T09:43:49Z</time>
      </trkpt>
      <trkpt lat="50.25104" lon="3.68475">
        <ele>132.32</ele>
        <time>2016-08-31T09:44:03Z</time>
      </trkpt>
      <trkpt lat="50.25098" lon="3.68497">
        <ele>132.8</ele>
        <time>2016-08-31T09:44:16Z</time>
      </trkpt>
      <trkpt lat="50.2509" lon="3.68523">
        <ele>133.76</ele>
        <time>2016-08-31T09:44:31Z</time>
      </trkpt>
      <trkpt lat="50.25083" lon="3.6855">
        <ele>133.76</ele>
        <time>2016-08-31T09:44:46Z</time>
      </trkpt>
      <trkpt lat="50.25075" lon="3.68576">
        <ele>134.24</ele>
        <time>2016-08-31T09:45:01Z</time>
      </trkpt>
      <trkpt lat="50.25066" lon="3.68603">
        <ele>134.24</ele>
        <time>2016-08-31T09:45:16Z</time>
      </trkpt>
      <trkpt lat="50.25059" lon="3.68625">
        <ele>134.24</ele>
        <time>2016-08-31T09:45:30Z</time>
      </trkpt>
      <trkpt lat="50.25051" lon="3.68651">
        <ele>135.2</ele>
        <time>2016-08-31T09:45:44Z</time>
      </trkpt>
      <trkpt lat="50.25044" lon="3.68673">
        <ele>135.2</ele>
        <time>2016-08-31T09:45:58Z</time>
      </trkpt>
      <trkpt lat="50.25034" lon="3.68693">
        <ele>135.68</ele>
        <time>2016-08-31T09:46:11Z</time>
      </trkpt>
      <trkpt lat="50.25031" lon="3.68698">
        <ele>136.64</ele>
        <time>2016-08-31T09:46:15Z</time>
      </trkpt>
      <trkpt lat="50.25022" lon="3.68717">
        <ele>137.61</ele>
        <time>2016-08-31T09:46:27Z</time>
      </trkpt>
      <trkpt lat="50.25008" lon="3.68737">
        <ele>138.09</ele>
        <time>2016-08-31T09:46:43Z</time>
      </trkpt>
      <trkpt lat="50.24996" lon="3.68754">
        <ele>138.57</ele>
        <time>2016-08-31T09:46:57Z</time>
      </trkpt>
      <trkpt lat="50.24981" lon="3.68775">
        <ele>138.09</ele>
        <time>2016-08-31T09:47:13Z</time>
      </trkpt>
      <trkpt lat="50.24966" lon="3.68791">
        <ele>138.57</ele>
        <time>2016-08-31T09:47:28Z</time>
      </trkpt>
      <trkpt lat="50.24951" lon="3.68811">
        <ele>138.57</ele>
        <time>2016-08-31T09:47:44Z</time>
      </trkpt>
      <trkpt lat="50.24939" lon="3.6883">
        <ele>138.57</ele>
        <time>2016-08-31T09:47:58Z</time>
      </trkpt>
      <trkpt lat="50.24931" lon="3.68852">
        <ele>138.09</ele>
        <time>2016-08-31T09:48:11Z</time>
      </trkpt>
      <trkpt lat="50.24922" lon="3.68875">
        <ele>138.09</ele>
        <time>2016-08-31T09:48:25Z</time>
      </trkpt>
      <trkpt lat="50.24913" lon="3.689">
        <ele>138.09</ele>
        <time>2016-08-31T09:48:40Z</time>
      </trkpt>
      <trkpt lat="50.24905" lon="3.68923">
        <ele>139.05</ele>
        <time>2016-08-31T09:48:54Z</time>
      </trkpt>
      <trkpt lat="50.24898" lon="3.68945">
        <ele>139.53</ele>
        <time>2016-08-31T09:49:07Z</time>
      </trkpt>
      <trkpt lat="50.24891" lon="3.68968">
        <ele>139.53</ele>
        <time>2016-08-31T09:49:21Z</time>
      </trkpt>
      <trkpt lat="50.24881" lon="3.68985">
        <ele>139.53</ele>
        <time>2016-08-31T09:49:33Z</time>
      </trkpt>
      <trkpt lat="50.24872" lon="3.69004">
        <ele>140.49</ele>
        <time>2016-08-31T09:49:45Z</time>
      </trkpt>
      <trkpt lat="50.24868" lon="3.69026">
        <ele>140.97</ele>
        <time>2016-08-31T09:49:59Z</time>
      </trkpt>
      <trkpt lat="50.24863" lon="3.69061">
        <ele>141.45</ele>
        <time>2016-08-31T09:50:16Z</time>
      </trkpt>
      <trkpt lat="50.24864" lon="3.69091">
        <ele>141.93</ele>
        <time>2016-08-31T09:50:30Z</time>
      </trkpt>
      <trkpt lat="50.24866" lon="3.69117">
        <ele>142.41</ele>
        <time>2016-08-31T09:50:44Z</time>
      </trkpt>
      <trkpt lat="50.24869" lon="3.69143">
        <ele>142.41</ele>
        <time>2016-08-31T09:50:57Z</time>
      </trkpt>
      <trkpt lat="50.24871" lon="3.69167">
        <ele>142.41</ele>
        <time>2016-08-31T09:51:11Z</time>
      </trkpt>
      <trkpt lat="50.24873" lon="3.69194">
        <ele>141.93</ele>
        <time>2016-08-31T09:51:25Z</time>
      </trkpt>
      <trkpt lat="50.24874" lon="3.69202">
        <ele>141.45</ele>
        <time>2016-08-31T09:51:30Z</time>
      </trkpt>
      <trkpt lat="50.24874" lon="3.6921">
        <ele>141.45</ele>
        <time>2016-08-31T09:51:34Z</time>
      </trkpt>
      <trkpt lat="50.24875" lon="3.6924">
        <ele>140.97</ele>
        <time>2016-08-31T09:51:50Z</time>
      </trkpt>
      <trkpt lat="50.24873" lon="3.69258">
        <ele>140.49</ele>
        <time>2016-08-31T09:52:00Z</time>
      </trkpt>
      <trkpt lat="50.24872" lon="3.69263">
        <ele>140.01</ele>
        <time>2016-08-31T09:52:03Z</time>
      </trkpt>
      <trkpt lat="50.2487" lon="3.69271">
        <ele>140.49</ele>
        <time>2016-08-31T09:52:07Z</time>
      </trkpt>
      <trkpt lat="50.24868" lon="3.69296">
        <ele>139.53</ele>
        <time>2016-08-31T09:52:21Z</time>
      </trkpt>
      <trkpt lat="50.24869" lon="3.69321">
        <ele>139.53</ele>
        <time>2016-08-31T09:52:34Z</time>
      </trkpt>
      <trkpt lat="50.24872" lon="3.69352">
        <ele>139.53</ele>
        <time>2016-08-31T09:52:49Z</time>
      </trkpt>
      <trkpt lat="50.24872" lon="3.69383">
        <ele>139.05</ele>
        <time>2016-08-31T09:53:06Z</time>
      </trkpt>
      <trkpt lat="50.2487" lon="3.69411">
        <ele>138.57</ele>
        <time>2016-08-31T09:53:21Z</time>
      </trkpt>
      <trkpt lat="50.24864" lon="3.69439">
        <ele>139.05</ele>
        <time>2016-08-31T09:53:36Z</time>
      </trkpt>
      <trkpt lat="50.24858" lon="3.69465">
        <ele>138.57</ele>
        <time>2016-08-31T09:53:51Z</time>
      </trkpt>
      <trkpt lat="50.24854" lon="3.69494">
        <ele>138.57</ele>
        <time>2016-08-31T09:54:05Z</time>
      </trkpt>
      <trkpt lat="50.24849" lon="3.69522">
        <ele>138.57</ele>
        <time>2016-08-31T09:54:19Z</time>
      </trkpt>
      <trkpt lat="50.24847" lon="3.69549">
        <ele>138.57</ele>
        <time>2016-08-31T09:54:34Z</time>
      </trkpt>
      <trkpt lat="50.24845" lon="3.69576">
        <ele>139.05</ele>
        <time>2016-08-31T09:54:48Z</time>
      </trkpt>
      <trkpt lat="50.24844" lon="3.69601">
        <ele>139.05</ele>
        <time>2016-08-31T09:55:02Z</time>
      </trkpt>
      <trkpt lat="50.24842" lon="3.69627">
        <ele>140.49</ele>
        <time>2016-08-31T09:55:17Z</time>
      </trkpt>
      <trkpt lat="50.2484" lon="3.69655">
        <ele>140.01</ele>
        <time>2016-08-31T09:55:32Z</time>
      </trkpt>
      <trkpt lat="50.24839" lon="3.69669">
        <ele>140.01</ele>
        <time>2016-08-31T09:55:39Z</time>
      </trkpt>
      <trkpt lat="50.24837" lon="3.69697">
        <ele>141.93</ele>
        <time>2016-08-31T09:55:54Z</time>
      </trkpt>
      <trkpt lat="50.24836" lon="3.69723">
        <ele>141.93</ele>
        <time>2016-08-31T09:56:07Z</time>
      </trkpt>
      <trkpt lat="50.24834" lon="3.69745">
        <ele>142.41</ele>
        <time>2016-08-31T09:56:20Z</time>
      </trkpt>
      <trkpt lat="50.24834" lon="3.69763">
        <ele>142.89</ele>
        <time>2016-08-31T09:56:27Z</time>
      </trkpt>
      <trkpt lat="50.24833" lon="3.69797">
        <ele>143.37</ele>
        <time>2016-08-31T09:56:44Z</time>
      </trkpt>
      <trkpt lat="50.24826" lon="3.6981">
        <ele>143.37</ele>
        <time>2016-08-31T09:56:56Z</time>
      </trkpt>
      <trkpt lat="50.24824" lon="3.69809">
        <ele>143.37</ele>
        <time>2016-08-31T09:56:58Z</time>
      </trkpt>
      <trkpt lat="50.2481" lon="3.69791">
        <ele>142.89</ele>
        <time>2016-08-31T09:57:14Z</time>
      </trkpt>
      <trkpt lat="50.24796" lon="3.6977">
        <ele>142.41</ele>
        <time>2016-08-31T09:57:30Z</time>
      </trkpt>
      <trkpt lat="50.24778" lon="3.69755">
        <ele>141.93</ele>
        <time>2016-08-31T09:57:46Z</time>
      </trkpt>
      <trkpt lat="50.24751" lon="3.69746">
        <ele>141.45</ele>
        <time>2016-08-31T09:58:06Z</time>
      </trkpt>
      <trkpt lat="50.24731" lon="3.6974">
        <ele>141.45</ele>
        <time>2016-08-31T09:58:23Z</time>
      </trkpt>
      <trkpt lat="50.24707" lon="3.69735">
        <ele>140.97</ele>
        <time>2016-08-31T09:58:41Z</time>
      </trkpt>
      <trkpt lat="50.24684" lon="3.69732">
        <ele>140.01</ele>
        <time>2016-08-31T09:59:00Z</time>
      </trkpt>
      <trkpt lat="50.24659" lon="3.69725">
        <ele>139.53</ele>
        <time>2016-08-31T09:59:18Z</time>
      </trkpt>
      <trkpt lat="50.24639" lon="3.69715">
        <ele>139.05</ele>
        <time>2016-08-31T09:59:34Z</time>
      </trkpt>
      <trkpt lat="50.24618" lon="3.69704">
        <ele>137.61</ele>
        <time>2016-08-31T09:59:52Z</time>
      </trkpt>
      <trkpt lat="50.24614" lon="3.69705">
        <ele>136.16</ele>
        <time>2016-08-31T09:59:57Z</time>
      </trkpt>
    </trkseg>
  </trk>
</gpx>